﻿<?xml version="1.0" encoding="UTF-8" standalone="yes"?>
<gpx
 version="1.1"
 creator="Perfils - http://www.amigosdelciclismo.com/Perfils"
 xmlns="http://www.topografix.com/GPX/1/1"
 xmlns:gpxx="http://www.garmin.com/xmlschemas/GpxExtensions/v3"
 xmlns:wptx1="http://www.garmin.com/xmlschemas/WaypointExtension/v1"
 xmlns:gpxtpx="http://www.garmin.com/xmlschemas/TrackPointExtension/v1"
 xmlns:xsi="http://www.w3.org/2001/XMLSchema-instance"
 xsi:schemaLocation="http://www.topografix.com/GPX/1/1 http://www.topografix.com/GPX/1/1/gpx.xsd http://www.garmin.com/xmlschemas/GpxExtensions/v3 http://www8.garmin.com/xmlschemas/GpxExtensionsv3.xsd http://www.garmin.com/xmlschemas/WaypointExtension/v1 http://www8.garmin.com/xmlschemas/WaypointExtensionv1.xsd http://www.garmin.com/xmlschemas/TrackPointExtension/v1 http://www.garmin.com/xmlschemas/TrackPointExtensionv1.xsd">
<metadata>
<time>2024-02-01T23:32:40Z</time>
<bounds minlat="42.792695" minlon="-4.498560" maxlat="42.862095" maxlon="-4.259098"/>
</metadata>
<trk>
 <name>ETAPA  8: AGUILAR DE CAMPOO - CERVERA DE PISUERGA CAMINO OLVIDADO</name>
 <desc>C:\Users\ENDER\Desktop\CAMINO OLVIDADO TRACKS 2024\ETAPA  8_ AGUILAR DE CAMPOO - CERVERA DE PISUERGA CAMINO OLVIDADO.gpx</desc>
 <trkseg>
  <trkpt lat="42.792820" lon="-4.259100">
   <ele>900.339844</ele>
   <time>2024-02-01T23:32:40Z</time>
  </trkpt>
  <trkpt lat="42.792830" lon="-4.259280">
   <ele>900.175781</ele>
   <time>2024-02-01T23:32:53Z</time>
  </trkpt>
  <trkpt lat="42.792777" lon="-4.259921">
   <ele>898.929688</ele>
   <time>2024-02-01T23:33:41Z</time>
  </trkpt>
  <trkpt lat="42.792749" lon="-4.260799">
   <ele>901.121094</ele>
   <time>2024-02-01T23:34:46Z</time>
  </trkpt>
  <trkpt lat="42.792728" lon="-4.261033">
   <ele>901.550781</ele>
   <time>2024-02-01T23:35:03Z</time>
  </trkpt>
  <trkpt lat="42.792701" lon="-4.261310">
   <ele>902.156250</ele>
   <time>2024-02-01T23:35:24Z</time>
  </trkpt>
  <trkpt lat="42.792674" lon="-4.261553">
   <ele>902.601563</ele>
   <time>2024-02-01T23:35:42Z</time>
  </trkpt>
  <trkpt lat="42.792674" lon="-4.261564">
   <ele>902.625000</ele>
   <time>2024-02-01T23:35:43Z</time>
  </trkpt>
  <trkpt lat="42.792683" lon="-4.261896">
   <ele>902.312500</ele>
   <time>2024-02-01T23:36:07Z</time>
  </trkpt>
  <trkpt lat="42.792791" lon="-4.262084">
   <ele>902.460938</ele>
   <time>2024-02-01T23:36:25Z</time>
  </trkpt>
  <trkpt lat="42.792872" lon="-4.262206">
   <ele>902.593750</ele>
   <time>2024-02-01T23:36:36Z</time>
  </trkpt>
  <trkpt lat="42.792890" lon="-4.262438">
   <ele>902.417969</ele>
   <time>2024-02-01T23:36:54Z</time>
  </trkpt>
  <trkpt lat="42.792908" lon="-4.262693">
   <ele>902.394531</ele>
   <time>2024-02-01T23:37:13Z</time>
  </trkpt>
  <trkpt lat="42.792890" lon="-4.263003">
   <ele>902.308594</ele>
   <time>2024-02-01T23:37:36Z</time>
  </trkpt>
  <trkpt lat="42.792854" lon="-4.263246">
   <ele>902.160156</ele>
   <time>2024-02-01T23:37:54Z</time>
  </trkpt>
  <trkpt lat="42.792836" lon="-4.263534">
   <ele>902.632813</ele>
   <time>2024-02-01T23:38:14Z</time>
  </trkpt>
  <trkpt lat="42.792818" lon="-4.263866">
   <ele>902.898438</ele>
   <time>2024-02-01T23:38:40Z</time>
  </trkpt>
  <trkpt lat="42.792818" lon="-4.263877">
   <ele>902.910156</ele>
   <time>2024-02-01T23:38:40Z</time>
  </trkpt>
  <trkpt lat="42.792809" lon="-4.264131">
   <ele>902.925781</ele>
   <time>2024-02-01T23:38:59Z</time>
  </trkpt>
  <trkpt lat="42.792809" lon="-4.264142">
   <ele>902.902344</ele>
   <time>2024-02-01T23:38:59Z</time>
  </trkpt>
  <trkpt lat="42.792782" lon="-4.264430">
   <ele>902.046875</ele>
   <time>2024-02-01T23:39:21Z</time>
  </trkpt>
  <trkpt lat="42.792791" lon="-4.264740">
   <ele>901.117188</ele>
   <time>2024-02-01T23:39:44Z</time>
  </trkpt>
  <trkpt lat="42.792791" lon="-4.264751">
   <ele>901.082031</ele>
   <time>2024-02-01T23:39:45Z</time>
  </trkpt>
  <trkpt lat="42.792764" lon="-4.264972">
   <ele>900.554688</ele>
   <time>2024-02-01T23:40:02Z</time>
  </trkpt>
  <trkpt lat="42.792764" lon="-4.265005">
   <ele>900.554688</ele>
   <time>2024-02-01T23:40:03Z</time>
  </trkpt>
  <trkpt lat="42.792764" lon="-4.265215">
   <ele>900.523438</ele>
   <time>2024-02-01T23:40:20Z</time>
  </trkpt>
  <trkpt lat="42.792746" lon="-4.265393">
   <ele>900.339844</ele>
   <time>2024-02-01T23:40:33Z</time>
  </trkpt>
  <trkpt lat="42.792849" lon="-4.265516">
   <ele>900.429688</ele>
   <time>2024-02-01T23:40:47Z</time>
  </trkpt>
  <trkpt lat="42.792971" lon="-4.265698">
   <ele>900.554688</ele>
   <time>2024-02-01T23:41:05Z</time>
  </trkpt>
  <trkpt lat="42.792998" lon="-4.265931">
   <ele>900.347656</ele>
   <time>2024-02-01T23:41:22Z</time>
  </trkpt>
  <trkpt lat="42.792998" lon="-4.265964">
   <ele>900.312500</ele>
   <time>2024-02-01T23:41:24Z</time>
  </trkpt>
  <trkpt lat="42.792998" lon="-4.266147">
   <ele>900.109375</ele>
   <time>2024-02-01T23:41:38Z</time>
  </trkpt>
  <trkpt lat="42.793024" lon="-4.266362">
   <ele>899.902344</ele>
   <time>2024-02-01T23:41:54Z</time>
  </trkpt>
  <trkpt lat="42.793213" lon="-4.266727">
   <ele>899.710938</ele>
   <time>2024-02-01T23:42:26Z</time>
  </trkpt>
  <trkpt lat="42.793227" lon="-4.266761">
   <ele>899.687500</ele>
   <time>2024-02-01T23:42:29Z</time>
  </trkpt>
  <trkpt lat="42.793415" lon="-4.267093">
   <ele>899.574219</ele>
   <time>2024-02-01T23:43:00Z</time>
  </trkpt>
  <trkpt lat="42.793550" lon="-4.267292">
   <ele>899.656250</ele>
   <time>2024-02-01T23:43:20Z</time>
  </trkpt>
  <trkpt lat="42.793685" lon="-4.267574">
   <ele>899.285156</ele>
   <time>2024-02-01T23:43:45Z</time>
  </trkpt>
  <trkpt lat="42.793698" lon="-4.267591">
   <ele>899.273438</ele>
   <time>2024-02-01T23:43:47Z</time>
  </trkpt>
  <trkpt lat="42.793887" lon="-4.267956">
   <ele>898.710938</ele>
   <time>2024-02-01T23:44:20Z</time>
  </trkpt>
  <trkpt lat="42.793887" lon="-4.267972">
   <ele>898.671875</ele>
   <time>2024-02-01T23:44:21Z</time>
  </trkpt>
  <trkpt lat="42.793995" lon="-4.268122">
   <ele>898.699219</ele>
   <time>2024-02-01T23:44:36Z</time>
  </trkpt>
  <trkpt lat="42.794022" lon="-4.268188">
   <ele>898.644531</ele>
   <time>2024-02-01T23:44:42Z</time>
  </trkpt>
  <trkpt lat="42.794143" lon="-4.268454">
   <ele>898.945313</ele>
   <time>2024-02-01T23:45:05Z</time>
  </trkpt>
  <trkpt lat="42.794305" lon="-4.268686">
   <ele>899.585938</ele>
   <time>2024-02-01T23:45:29Z</time>
  </trkpt>
  <trkpt lat="42.794412" lon="-4.268902">
   <ele>900.062500</ele>
   <time>2024-02-01T23:45:48Z</time>
  </trkpt>
  <trkpt lat="42.794534" lon="-4.269167">
   <ele>900.761719</ele>
   <time>2024-02-01T23:46:11Z</time>
  </trkpt>
  <trkpt lat="42.794547" lon="-4.269167">
   <ele>900.835938</ele>
   <time>2024-02-01T23:46:12Z</time>
  </trkpt>
  <trkpt lat="42.794655" lon="-4.269350">
   <ele>901.621094</ele>
   <time>2024-02-01T23:46:28Z</time>
  </trkpt>
  <trkpt lat="42.794668" lon="-4.269366">
   <ele>901.695313</ele>
   <time>2024-02-01T23:46:31Z</time>
  </trkpt>
  <trkpt lat="42.794817" lon="-4.269582">
   <ele>902.500000</ele>
   <time>2024-02-01T23:46:53Z</time>
  </trkpt>
  <trkpt lat="42.794978" lon="-4.269981">
   <ele>903.628906</ele>
   <time>2024-02-01T23:47:25Z</time>
  </trkpt>
  <trkpt lat="42.795113" lon="-4.270163">
   <ele>904.066406</ele>
   <time>2024-02-01T23:47:44Z</time>
  </trkpt>
  <trkpt lat="42.795127" lon="-4.270196">
   <ele>904.089844</ele>
   <time>2024-02-01T23:47:47Z</time>
  </trkpt>
  <trkpt lat="42.795248" lon="-4.270445">
   <ele>904.347656</ele>
   <time>2024-02-01T23:48:10Z</time>
  </trkpt>
  <trkpt lat="42.795436" lon="-4.270711">
   <ele>905.007813</ele>
   <time>2024-02-01T23:48:37Z</time>
  </trkpt>
  <trkpt lat="42.795558" lon="-4.270927">
   <ele>905.445313</ele>
   <time>2024-02-01T23:48:57Z</time>
  </trkpt>
  <trkpt lat="42.795679" lon="-4.271142">
   <ele>906.066406</ele>
   <time>2024-02-01T23:49:17Z</time>
  </trkpt>
  <trkpt lat="42.795881" lon="-4.271325">
   <ele>907.683594</ele>
   <time>2024-02-01T23:49:42Z</time>
  </trkpt>
  <trkpt lat="42.796083" lon="-4.271375">
   <ele>913.839844</ele>
   <time>2024-02-01T23:50:03Z</time>
  </trkpt>
  <trkpt lat="42.796245" lon="-4.271474">
   <ele>919.031250</ele>
   <time>2024-02-01T23:50:20Z</time>
  </trkpt>
  <trkpt lat="42.796339" lon="-4.271657">
   <ele>921.718750</ele>
   <time>2024-02-01T23:50:38Z</time>
  </trkpt>
  <trkpt lat="42.796380" lon="-4.271806">
   <ele>921.890625</ele>
   <time>2024-02-01T23:50:49Z</time>
  </trkpt>
  <trkpt lat="42.796420" lon="-4.272055">
   <ele>921.164063</ele>
   <time>2024-02-01T23:51:08Z</time>
  </trkpt>
  <trkpt lat="42.796434" lon="-4.272271">
   <ele>919.839844</ele>
   <time>2024-02-01T23:51:24Z</time>
  </trkpt>
  <trkpt lat="42.796501" lon="-4.272487">
   <ele>919.300781</ele>
   <time>2024-02-01T23:51:42Z</time>
  </trkpt>
  <trkpt lat="42.796501" lon="-4.272636">
   <ele>917.449219</ele>
   <time>2024-02-01T23:51:53Z</time>
  </trkpt>
  <trkpt lat="42.796501" lon="-4.272819">
   <ele>915.148438</ele>
   <time>2024-02-01T23:52:05Z</time>
  </trkpt>
  <trkpt lat="42.796464" lon="-4.273010">
   <ele>912.078125</ele>
   <time>2024-02-01T23:52:21Z</time>
  </trkpt>
  <trkpt lat="42.796464" lon="-4.273126">
   <ele>910.765625</ele>
   <time>2024-02-01T23:52:30Z</time>
  </trkpt>
  <trkpt lat="42.796491" lon="-4.273225">
   <ele>910.117188</ele>
   <time>2024-02-01T23:52:37Z</time>
  </trkpt>
  <trkpt lat="42.796491" lon="-4.273491">
   <ele>908.632813</ele>
   <time>2024-02-01T23:52:56Z</time>
  </trkpt>
  <trkpt lat="42.796464" lon="-4.273607">
   <ele>907.597656</ele>
   <time>2024-02-01T23:53:06Z</time>
  </trkpt>
  <trkpt lat="42.796464" lon="-4.273740">
   <ele>906.972656</ele>
   <time>2024-02-01T23:53:15Z</time>
  </trkpt>
  <trkpt lat="42.796424" lon="-4.274088">
   <ele>904.617188</ele>
   <time>2024-02-01T23:53:41Z</time>
  </trkpt>
  <trkpt lat="42.796437" lon="-4.274321">
   <ele>904.796875</ele>
   <time>2024-02-01T23:53:58Z</time>
  </trkpt>
  <trkpt lat="42.796437" lon="-4.274437">
   <ele>904.683594</ele>
   <time>2024-02-01T23:54:08Z</time>
  </trkpt>
  <trkpt lat="42.796397" lon="-4.274503">
   <ele>904.179688</ele>
   <time>2024-02-01T23:54:13Z</time>
  </trkpt>
  <trkpt lat="42.796370" lon="-4.274619">
   <ele>903.843750</ele>
   <time>2024-02-01T23:54:22Z</time>
  </trkpt>
  <trkpt lat="42.796356" lon="-4.274885">
   <ele>903.796875</ele>
   <time>2024-02-01T23:54:43Z</time>
  </trkpt>
  <trkpt lat="42.796356" lon="-4.275068">
   <ele>903.468750</ele>
   <time>2024-02-01T23:54:56Z</time>
  </trkpt>
  <trkpt lat="42.796329" lon="-4.275283">
   <ele>902.968750</ele>
   <time>2024-02-01T23:55:12Z</time>
  </trkpt>
  <trkpt lat="42.796316" lon="-4.275433">
   <ele>902.714844</ele>
   <time>2024-02-01T23:55:23Z</time>
  </trkpt>
  <trkpt lat="42.796302" lon="-4.275649">
   <ele>902.363281</ele>
   <time>2024-02-01T23:55:39Z</time>
  </trkpt>
  <trkpt lat="42.796262" lon="-4.275881">
   <ele>902.085938</ele>
   <time>2024-02-01T23:55:57Z</time>
  </trkpt>
  <trkpt lat="42.796262" lon="-4.276196">
   <ele>902.000000</ele>
   <time>2024-02-01T23:56:20Z</time>
  </trkpt>
  <trkpt lat="42.796235" lon="-4.276429">
   <ele>901.871094</ele>
   <time>2024-02-01T23:56:36Z</time>
  </trkpt>
  <trkpt lat="42.796168" lon="-4.276744">
   <ele>901.636719</ele>
   <time>2024-02-01T23:57:01Z</time>
  </trkpt>
  <trkpt lat="42.796168" lon="-4.277225">
   <ele>901.347656</ele>
   <time>2024-02-01T23:57:37Z</time>
  </trkpt>
  <trkpt lat="42.796033" lon="-4.278155">
   <ele>902.750000</ele>
   <time>2024-02-01T23:58:47Z</time>
  </trkpt>
  <trkpt lat="42.795965" lon="-4.279001">
   <ele>902.351563</ele>
   <time>2024-02-01T23:59:49Z</time>
  </trkpt>
  <trkpt lat="42.795952" lon="-4.279283">
   <ele>902.503906</ele>
   <time>2024-02-02T00:00:09Z</time>
  </trkpt>
  <trkpt lat="42.795925" lon="-4.279516">
   <ele>902.335938</ele>
   <time>2024-02-02T00:00:27Z</time>
  </trkpt>
  <trkpt lat="42.795898" lon="-4.279980">
   <ele>902.261719</ele>
   <time>2024-02-02T00:01:02Z</time>
  </trkpt>
  <trkpt lat="42.795844" lon="-4.280196">
   <ele>902.195313</ele>
   <time>2024-02-02T00:01:19Z</time>
  </trkpt>
  <trkpt lat="42.795844" lon="-4.280395">
   <ele>902.851563</ele>
   <time>2024-02-02T00:01:32Z</time>
  </trkpt>
  <trkpt lat="42.795831" lon="-4.280578">
   <ele>903.265625</ele>
   <time>2024-02-02T00:01:46Z</time>
  </trkpt>
  <trkpt lat="42.795831" lon="-4.280910">
   <ele>904.167969</ele>
   <time>2024-02-02T00:02:10Z</time>
  </trkpt>
  <trkpt lat="42.795736" lon="-4.281341">
   <ele>905.320313</ele>
   <time>2024-02-02T00:02:44Z</time>
  </trkpt>
  <trkpt lat="42.795710" lon="-4.281657">
   <ele>906.101563</ele>
   <time>2024-02-02T00:03:08Z</time>
  </trkpt>
  <trkpt lat="42.795723" lon="-4.281806">
   <ele>906.503906</ele>
   <time>2024-02-02T00:03:19Z</time>
  </trkpt>
  <trkpt lat="42.795696" lon="-4.282138">
   <ele>907.273438</ele>
   <time>2024-02-02T00:03:43Z</time>
  </trkpt>
  <trkpt lat="42.795669" lon="-4.282420">
   <ele>907.785156</ele>
   <time>2024-02-02T00:04:04Z</time>
  </trkpt>
  <trkpt lat="42.795642" lon="-4.282852">
   <ele>908.863281</ele>
   <time>2024-02-02T00:04:36Z</time>
  </trkpt>
  <trkpt lat="42.795588" lon="-4.283250">
   <ele>909.546875</ele>
   <time>2024-02-02T00:05:05Z</time>
  </trkpt>
  <trkpt lat="42.795561" lon="-4.283549">
   <ele>909.941406</ele>
   <time>2024-02-02T00:05:28Z</time>
  </trkpt>
  <trkpt lat="42.795548" lon="-4.283648">
   <ele>910.003906</ele>
   <time>2024-02-02T00:05:36Z</time>
  </trkpt>
  <trkpt lat="42.795561" lon="-4.283864">
   <ele>910.632813</ele>
   <time>2024-02-02T00:05:52Z</time>
  </trkpt>
  <trkpt lat="42.795548" lon="-4.284196">
   <ele>911.296875</ele>
   <time>2024-02-02T00:06:16Z</time>
  </trkpt>
  <trkpt lat="42.795359" lon="-4.285540">
   <ele>911.820313</ele>
   <time>2024-02-02T00:07:57Z</time>
  </trkpt>
  <trkpt lat="42.795507" lon="-4.285524">
   <ele>913.691406</ele>
   <time>2024-02-02T00:08:12Z</time>
  </trkpt>
  <trkpt lat="42.795575" lon="-4.285192">
   <ele>913.910156</ele>
   <time>2024-02-02T00:08:37Z</time>
  </trkpt>
  <trkpt lat="42.795656" lon="-4.284794">
   <ele>914.171875</ele>
   <time>2024-02-02T00:09:07Z</time>
  </trkpt>
  <trkpt lat="42.795723" lon="-4.284495">
   <ele>914.476563</ele>
   <time>2024-02-02T00:09:30Z</time>
  </trkpt>
  <trkpt lat="42.795777" lon="-4.284362">
   <ele>914.953125</ele>
   <time>2024-02-02T00:09:42Z</time>
  </trkpt>
  <trkpt lat="42.795858" lon="-4.284196">
   <ele>915.742188</ele>
   <time>2024-02-02T00:09:55Z</time>
  </trkpt>
  <trkpt lat="42.795992" lon="-4.284146">
   <ele>917.464844</ele>
   <time>2024-02-02T00:10:10Z</time>
  </trkpt>
  <trkpt lat="42.796141" lon="-4.284262">
   <ele>919.851563</ele>
   <time>2024-02-02T00:10:27Z</time>
  </trkpt>
  <trkpt lat="42.796154" lon="-4.284478">
   <ele>920.750000</ele>
   <time>2024-02-02T00:10:43Z</time>
  </trkpt>
  <trkpt lat="42.796127" lon="-4.284727">
   <ele>921.160156</ele>
   <time>2024-02-02T00:11:02Z</time>
  </trkpt>
  <trkpt lat="42.796073" lon="-4.284943">
   <ele>920.910156</ele>
   <time>2024-02-02T00:11:18Z</time>
  </trkpt>
  <trkpt lat="42.796087" lon="-4.285175">
   <ele>921.632813</ele>
   <time>2024-02-02T00:11:35Z</time>
  </trkpt>
  <trkpt lat="42.796019" lon="-4.285325">
   <ele>920.687500</ele>
   <time>2024-02-02T00:11:49Z</time>
  </trkpt>
  <trkpt lat="42.796100" lon="-4.285690">
   <ele>922.644531</ele>
   <time>2024-02-02T00:12:17Z</time>
  </trkpt>
  <trkpt lat="42.796195" lon="-4.285889">
   <ele>924.539063</ele>
   <time>2024-02-02T00:12:34Z</time>
  </trkpt>
  <trkpt lat="42.796316" lon="-4.285955">
   <ele>926.625000</ele>
   <time>2024-02-02T00:12:47Z</time>
  </trkpt>
  <trkpt lat="42.796491" lon="-4.285955">
   <ele>929.546875</ele>
   <time>2024-02-02T00:13:06Z</time>
  </trkpt>
  <trkpt lat="42.796585" lon="-4.285955">
   <ele>931.101563</ele>
   <time>2024-02-02T00:13:15Z</time>
  </trkpt>
  <trkpt lat="42.796707" lon="-4.285789">
   <ele>933.261719</ele>
   <time>2024-02-02T00:13:32Z</time>
  </trkpt>
  <trkpt lat="42.796801" lon="-4.285557">
   <ele>934.058594</ele>
   <time>2024-02-02T00:13:51Z</time>
  </trkpt>
  <trkpt lat="42.796882" lon="-4.285391">
   <ele>934.792969</ele>
   <time>2024-02-02T00:14:07Z</time>
  </trkpt>
  <trkpt lat="42.796976" lon="-4.285225">
   <ele>935.792969</ele>
   <time>2024-02-02T00:14:22Z</time>
  </trkpt>
  <trkpt lat="42.797132" lon="-4.285394">
   <ele>938.289063</ele>
   <time>2024-02-02T00:14:42Z</time>
  </trkpt>
  <trkpt lat="42.797286" lon="-4.285586">
   <ele>940.355469</ele>
   <time>2024-02-02T00:15:02Z</time>
  </trkpt>
  <trkpt lat="42.797442" lon="-4.285794">
   <ele>941.921875</ele>
   <time>2024-02-02T00:15:25Z</time>
  </trkpt>
  <trkpt lat="42.797572" lon="-4.286020">
   <ele>942.496094</ele>
   <time>2024-02-02T00:15:45Z</time>
  </trkpt>
  <trkpt lat="42.797694" lon="-4.286426">
   <ele>941.339844</ele>
   <time>2024-02-02T00:16:17Z</time>
  </trkpt>
  <trkpt lat="42.797851" lon="-4.286561">
   <ele>941.781250</ele>
   <time>2024-02-02T00:16:36Z</time>
  </trkpt>
  <trkpt lat="42.798077" lon="-4.286637">
   <ele>942.757813</ele>
   <time>2024-02-02T00:16:59Z</time>
  </trkpt>
  <trkpt lat="42.798162" lon="-4.286677">
   <ele>942.863281</ele>
   <time>2024-02-02T00:17:08Z</time>
  </trkpt>
  <trkpt lat="42.798230" lon="-4.286687">
   <ele>943.203125</ele>
   <time>2024-02-02T00:17:16Z</time>
  </trkpt>
  <trkpt lat="42.798267" lon="-4.286788">
   <ele>942.082031</ele>
   <time>2024-02-02T00:17:24Z</time>
  </trkpt>
  <trkpt lat="42.798368" lon="-4.286886">
   <ele>941.367188</ele>
   <time>2024-02-02T00:17:37Z</time>
  </trkpt>
  <trkpt lat="42.798587" lon="-4.287088">
   <ele>940.417969</ele>
   <time>2024-02-02T00:18:02Z</time>
  </trkpt>
  <trkpt lat="42.798941" lon="-4.287045">
   <ele>944.199219</ele>
   <time>2024-02-02T00:18:39Z</time>
  </trkpt>
  <trkpt lat="42.799025" lon="-4.287001">
   <ele>945.609375</ele>
   <time>2024-02-02T00:18:47Z</time>
  </trkpt>
  <trkpt lat="42.799208" lon="-4.286787">
   <ele>950.445313</ele>
   <time>2024-02-02T00:19:12Z</time>
  </trkpt>
  <trkpt lat="42.799362" lon="-4.286619">
   <ele>953.062500</ele>
   <time>2024-02-02T00:19:33Z</time>
  </trkpt>
  <trkpt lat="42.799474" lon="-4.286520">
   <ele>954.347656</ele>
   <time>2024-02-02T00:19:46Z</time>
  </trkpt>
  <trkpt lat="42.799484" lon="-4.286506">
   <ele>954.492188</ele>
   <time>2024-02-02T00:19:47Z</time>
  </trkpt>
  <trkpt lat="42.799529" lon="-4.286462">
   <ele>954.902344</ele>
   <time>2024-02-02T00:19:53Z</time>
  </trkpt>
  <trkpt lat="42.799599" lon="-4.286428">
   <ele>955.199219</ele>
   <time>2024-02-02T00:20:00Z</time>
  </trkpt>
  <trkpt lat="42.799794" lon="-4.286489">
   <ele>954.621094</ele>
   <time>2024-02-02T00:20:19Z</time>
  </trkpt>
  <trkpt lat="42.799979" lon="-4.286585">
   <ele>953.941406</ele>
   <time>2024-02-02T00:20:40Z</time>
  </trkpt>
  <trkpt lat="42.800354" lon="-4.286621">
   <ele>957.187500</ele>
   <time>2024-02-02T00:21:18Z</time>
  </trkpt>
  <trkpt lat="42.800654" lon="-4.286634">
   <ele>960.277344</ele>
   <time>2024-02-02T00:21:48Z</time>
  </trkpt>
  <trkpt lat="42.800916" lon="-4.286398">
   <ele>962.894531</ele>
   <time>2024-02-02T00:22:19Z</time>
  </trkpt>
  <trkpt lat="42.800934" lon="-4.286372">
   <ele>962.847656</ele>
   <time>2024-02-02T00:22:22Z</time>
  </trkpt>
  <trkpt lat="42.800983" lon="-4.286352">
   <ele>962.613281</ele>
   <time>2024-02-02T00:22:27Z</time>
  </trkpt>
  <trkpt lat="42.801162" lon="-4.286211">
   <ele>962.070313</ele>
   <time>2024-02-02T00:22:48Z</time>
  </trkpt>
  <trkpt lat="42.801349" lon="-4.286082">
   <ele>961.671875</ele>
   <time>2024-02-02T00:23:08Z</time>
  </trkpt>
  <trkpt lat="42.801605" lon="-4.285912">
   <ele>961.269531</ele>
   <time>2024-02-02T00:23:37Z</time>
  </trkpt>
  <trkpt lat="42.801714" lon="-4.285850">
   <ele>961.160156</ele>
   <time>2024-02-02T00:23:49Z</time>
  </trkpt>
  <trkpt lat="42.801928" lon="-4.285688">
   <ele>961.070313</ele>
   <time>2024-02-02T00:24:14Z</time>
  </trkpt>
  <trkpt lat="42.802226" lon="-4.285465">
   <ele>960.765625</ele>
   <time>2024-02-02T00:24:47Z</time>
  </trkpt>
  <trkpt lat="42.802502" lon="-4.284980">
   <ele>961.726563</ele>
   <time>2024-02-02T00:25:33Z</time>
  </trkpt>
  <trkpt lat="42.802575" lon="-4.284545">
   <ele>962.355469</ele>
   <time>2024-02-02T00:26:06Z</time>
  </trkpt>
  <trkpt lat="42.802816" lon="-4.284099">
   <ele>963.367188</ele>
   <time>2024-02-02T00:26:46Z</time>
  </trkpt>
  <trkpt lat="42.803055" lon="-4.283750">
   <ele>964.101563</ele>
   <time>2024-02-02T00:27:22Z</time>
  </trkpt>
  <trkpt lat="42.803415" lon="-4.283675">
   <ele>964.304688</ele>
   <time>2024-02-02T00:27:58Z</time>
  </trkpt>
  <trkpt lat="42.803794" lon="-4.283672">
   <ele>966.132813</ele>
   <time>2024-02-02T00:28:36Z</time>
  </trkpt>
  <trkpt lat="42.804208" lon="-4.283707">
   <ele>967.890625</ele>
   <time>2024-02-02T00:29:17Z</time>
  </trkpt>
  <trkpt lat="42.804634" lon="-4.283734">
   <ele>968.167969</ele>
   <time>2024-02-02T00:29:59Z</time>
  </trkpt>
  <trkpt lat="42.804962" lon="-4.283779">
   <ele>968.027344</ele>
   <time>2024-02-02T00:30:33Z</time>
  </trkpt>
  <trkpt lat="42.805224" lon="-4.283828">
   <ele>966.703125</ele>
   <time>2024-02-02T00:30:59Z</time>
  </trkpt>
  <trkpt lat="42.805525" lon="-4.283848">
   <ele>964.875000</ele>
   <time>2024-02-02T00:31:29Z</time>
  </trkpt>
  <trkpt lat="42.805828" lon="-4.283892">
   <ele>962.859375</ele>
   <time>2024-02-02T00:32:00Z</time>
  </trkpt>
  <trkpt lat="42.806263" lon="-4.283974">
   <ele>958.328125</ele>
   <time>2024-02-02T00:32:44Z</time>
  </trkpt>
  <trkpt lat="42.806810" lon="-4.284046">
   <ele>953.347656</ele>
   <time>2024-02-02T00:33:38Z</time>
  </trkpt>
  <trkpt lat="42.807274" lon="-4.284111">
   <ele>950.195313</ele>
   <time>2024-02-02T00:34:26Z</time>
  </trkpt>
  <trkpt lat="42.807628" lon="-4.284149">
   <ele>948.222656</ele>
   <time>2024-02-02T00:35:01Z</time>
  </trkpt>
  <trkpt lat="42.808030" lon="-4.284151">
   <ele>946.945313</ele>
   <time>2024-02-02T00:35:42Z</time>
  </trkpt>
  <trkpt lat="42.808256" lon="-4.284190">
   <ele>945.722656</ele>
   <time>2024-02-02T00:36:05Z</time>
  </trkpt>
  <trkpt lat="42.808457" lon="-4.284248">
   <ele>944.527344</ele>
   <time>2024-02-02T00:36:24Z</time>
  </trkpt>
  <trkpt lat="42.808703" lon="-4.284260">
   <ele>943.734375</ele>
   <time>2024-02-02T00:36:49Z</time>
  </trkpt>
  <trkpt lat="42.808992" lon="-4.284360">
   <ele>942.546875</ele>
   <time>2024-02-02T00:37:20Z</time>
  </trkpt>
  <trkpt lat="42.809281" lon="-4.284500">
   <ele>942.878906</ele>
   <time>2024-02-02T00:37:50Z</time>
  </trkpt>
  <trkpt lat="42.809394" lon="-4.284569">
   <ele>943.851563</ele>
   <time>2024-02-02T00:38:03Z</time>
  </trkpt>
  <trkpt lat="42.809501" lon="-4.284616">
   <ele>944.878906</ele>
   <time>2024-02-02T00:38:14Z</time>
  </trkpt>
  <trkpt lat="42.809608" lon="-4.284655">
   <ele>946.078125</ele>
   <time>2024-02-02T00:38:25Z</time>
  </trkpt>
  <trkpt lat="42.809665" lon="-4.284639">
   <ele>946.695313</ele>
   <time>2024-02-02T00:38:31Z</time>
  </trkpt>
  <trkpt lat="42.809778" lon="-4.284569">
   <ele>947.726563</ele>
   <time>2024-02-02T00:38:43Z</time>
  </trkpt>
  <trkpt lat="42.809872" lon="-4.284523">
   <ele>948.308594</ele>
   <time>2024-02-02T00:38:53Z</time>
  </trkpt>
  <trkpt lat="42.809948" lon="-4.284500">
   <ele>948.792969</ele>
   <time>2024-02-02T00:39:00Z</time>
  </trkpt>
  <trkpt lat="42.810048" lon="-4.284472">
   <ele>949.156250</ele>
   <time>2024-02-02T00:39:11Z</time>
  </trkpt>
  <trkpt lat="42.810402" lon="-4.284609">
   <ele>948.078125</ele>
   <time>2024-02-02T00:39:48Z</time>
  </trkpt>
  <trkpt lat="42.810737" lon="-4.284782">
   <ele>948.070313</ele>
   <time>2024-02-02T00:40:23Z</time>
  </trkpt>
  <trkpt lat="42.811117" lon="-4.284957">
   <ele>946.355469</ele>
   <time>2024-02-02T00:41:04Z</time>
  </trkpt>
  <trkpt lat="42.811379" lon="-4.285081">
   <ele>943.910156</ele>
   <time>2024-02-02T00:41:32Z</time>
  </trkpt>
  <trkpt lat="42.811607" lon="-4.285215">
   <ele>941.781250</ele>
   <time>2024-02-02T00:41:57Z</time>
  </trkpt>
  <trkpt lat="42.811743" lon="-4.285293">
   <ele>941.082031</ele>
   <time>2024-02-02T00:42:11Z</time>
  </trkpt>
  <trkpt lat="42.811883" lon="-4.285303">
   <ele>941.250000</ele>
   <time>2024-02-02T00:42:26Z</time>
  </trkpt>
  <trkpt lat="42.811969" lon="-4.285296">
   <ele>941.304688</ele>
   <time>2024-02-02T00:42:33Z</time>
  </trkpt>
  <trkpt lat="42.812034" lon="-4.285303">
   <ele>941.410156</ele>
   <time>2024-02-02T00:42:40Z</time>
  </trkpt>
  <trkpt lat="42.812072" lon="-4.285320">
   <ele>941.566406</ele>
   <time>2024-02-02T00:42:44Z</time>
  </trkpt>
  <trkpt lat="42.812190" lon="-4.285237">
   <ele>940.980469</ele>
   <time>2024-02-02T00:42:58Z</time>
  </trkpt>
  <trkpt lat="42.812390" lon="-4.285114">
   <ele>939.644531</ele>
   <time>2024-02-02T00:43:20Z</time>
  </trkpt>
  <trkpt lat="42.812500" lon="-4.285015">
   <ele>938.175781</ele>
   <time>2024-02-02T00:43:33Z</time>
  </trkpt>
  <trkpt lat="42.812611" lon="-4.284925">
   <ele>937.750000</ele>
   <time>2024-02-02T00:43:46Z</time>
  </trkpt>
  <trkpt lat="42.812700" lon="-4.284852">
   <ele>938.023438</ele>
   <time>2024-02-02T00:43:56Z</time>
  </trkpt>
  <trkpt lat="42.812778" lon="-4.284792">
   <ele>938.476563</ele>
   <time>2024-02-02T00:44:05Z</time>
  </trkpt>
  <trkpt lat="42.812883" lon="-4.284752">
   <ele>939.218750</ele>
   <time>2024-02-02T00:44:15Z</time>
  </trkpt>
  <trkpt lat="42.812975" lon="-4.284716">
   <ele>939.761719</ele>
   <time>2024-02-02T00:44:25Z</time>
  </trkpt>
  <trkpt lat="42.813031" lon="-4.284683">
   <ele>939.957031</ele>
   <time>2024-02-02T00:44:31Z</time>
  </trkpt>
  <trkpt lat="42.813118" lon="-4.284669">
   <ele>940.539063</ele>
   <time>2024-02-02T00:44:41Z</time>
  </trkpt>
  <trkpt lat="42.813474" lon="-4.284560">
   <ele>940.960938</ele>
   <time>2024-02-02T00:45:16Z</time>
  </trkpt>
  <trkpt lat="42.813670" lon="-4.284520">
   <ele>940.144531</ele>
   <time>2024-02-02T00:45:36Z</time>
  </trkpt>
  <trkpt lat="42.813816" lon="-4.284474">
   <ele>939.488281</ele>
   <time>2024-02-02T00:45:51Z</time>
  </trkpt>
  <trkpt lat="42.814223" lon="-4.284407">
   <ele>938.257813</ele>
   <time>2024-02-02T00:46:32Z</time>
  </trkpt>
  <trkpt lat="42.814551" lon="-4.284321">
   <ele>936.101563</ele>
   <time>2024-02-02T00:47:07Z</time>
  </trkpt>
  <trkpt lat="42.814907" lon="-4.284291">
   <ele>934.242188</ele>
   <time>2024-02-02T00:47:42Z</time>
  </trkpt>
  <trkpt lat="42.815128" lon="-4.284241">
   <ele>933.089844</ele>
   <time>2024-02-02T00:48:04Z</time>
  </trkpt>
  <trkpt lat="42.815395" lon="-4.284248">
   <ele>931.812500</ele>
   <time>2024-02-02T00:48:30Z</time>
  </trkpt>
  <trkpt lat="42.815501" lon="-4.284258">
   <ele>931.304688</ele>
   <time>2024-02-02T00:48:42Z</time>
  </trkpt>
  <trkpt lat="42.815598" lon="-4.284245">
   <ele>930.769531</ele>
   <time>2024-02-02T00:48:52Z</time>
  </trkpt>
  <trkpt lat="42.815665" lon="-4.284238">
   <ele>930.453125</ele>
   <time>2024-02-02T00:48:59Z</time>
  </trkpt>
  <trkpt lat="42.815827" lon="-4.284152">
   <ele>929.457031</ele>
   <time>2024-02-02T00:49:16Z</time>
  </trkpt>
  <trkpt lat="42.815913" lon="-4.284102">
   <ele>929.222656</ele>
   <time>2024-02-02T00:49:24Z</time>
  </trkpt>
  <trkpt lat="42.816126" lon="-4.283950">
   <ele>929.074219</ele>
   <time>2024-02-02T00:49:49Z</time>
  </trkpt>
  <trkpt lat="42.816894" lon="-4.283469">
   <ele>928.859375</ele>
   <time>2024-02-02T00:51:14Z</time>
  </trkpt>
  <trkpt lat="42.817132" lon="-4.283328">
   <ele>928.812500</ele>
   <time>2024-02-02T00:51:40Z</time>
  </trkpt>
  <trkpt lat="42.817259" lon="-4.283252">
   <ele>928.785156</ele>
   <time>2024-02-02T00:51:54Z</time>
  </trkpt>
  <trkpt lat="42.817505" lon="-4.283159">
   <ele>928.707031</ele>
   <time>2024-02-02T00:52:19Z</time>
  </trkpt>
  <trkpt lat="42.817675" lon="-4.283065">
   <ele>928.312500</ele>
   <time>2024-02-02T00:52:38Z</time>
  </trkpt>
  <trkpt lat="42.817904" lon="-4.282949">
   <ele>927.804688</ele>
   <time>2024-02-02T00:53:02Z</time>
  </trkpt>
  <trkpt lat="42.817987" lon="-4.282847">
   <ele>927.250000</ele>
   <time>2024-02-02T00:53:13Z</time>
  </trkpt>
  <trkpt lat="42.818026" lon="-4.282832">
   <ele>927.167969</ele>
   <time>2024-02-02T00:53:17Z</time>
  </trkpt>
  <trkpt lat="42.818250" lon="-4.282633">
   <ele>926.113281</ele>
   <time>2024-02-02T00:53:44Z</time>
  </trkpt>
  <trkpt lat="42.818336" lon="-4.282607">
   <ele>925.996094</ele>
   <time>2024-02-02T00:53:53Z</time>
  </trkpt>
  <trkpt lat="42.818525" lon="-4.282520">
   <ele>925.246094</ele>
   <time>2024-02-02T00:54:13Z</time>
  </trkpt>
  <trkpt lat="42.818751" lon="-4.282605">
   <ele>924.992188</ele>
   <time>2024-02-02T00:54:36Z</time>
  </trkpt>
  <trkpt lat="42.818981" lon="-4.282670">
   <ele>924.597656</ele>
   <time>2024-02-02T00:55:00Z</time>
  </trkpt>
  <trkpt lat="42.819087" lon="-4.282641">
   <ele>924.238281</ele>
   <time>2024-02-02T00:55:11Z</time>
  </trkpt>
  <trkpt lat="42.819143" lon="-4.282634">
   <ele>924.085938</ele>
   <time>2024-02-02T00:55:16Z</time>
  </trkpt>
  <trkpt lat="42.819200" lon="-4.282579">
   <ele>923.757813</ele>
   <time>2024-02-02T00:55:23Z</time>
  </trkpt>
  <trkpt lat="42.819249" lon="-4.282532">
   <ele>923.605469</ele>
   <time>2024-02-02T00:55:29Z</time>
  </trkpt>
  <trkpt lat="42.819317" lon="-4.282384">
   <ele>923.050781</ele>
   <time>2024-02-02T00:55:42Z</time>
  </trkpt>
  <trkpt lat="42.819407" lon="-4.282247">
   <ele>923.000000</ele>
   <time>2024-02-02T00:55:55Z</time>
  </trkpt>
  <trkpt lat="42.819477" lon="-4.282159">
   <ele>922.980469</ele>
   <time>2024-02-02T00:56:05Z</time>
  </trkpt>
  <trkpt lat="42.819551" lon="-4.282061">
   <ele>922.953125</ele>
   <time>2024-02-02T00:56:15Z</time>
  </trkpt>
  <trkpt lat="42.819663" lon="-4.281931">
   <ele>922.933594</ele>
   <time>2024-02-02T00:56:30Z</time>
  </trkpt>
  <trkpt lat="42.819965" lon="-4.281725">
   <ele>923.039063</ele>
   <time>2024-02-02T00:57:04Z</time>
  </trkpt>
  <trkpt lat="42.820051" lon="-4.281675">
   <ele>922.996094</ele>
   <time>2024-02-02T00:57:12Z</time>
  </trkpt>
  <trkpt lat="42.820201" lon="-4.281631">
   <ele>922.656250</ele>
   <time>2024-02-02T00:57:28Z</time>
  </trkpt>
  <trkpt lat="42.820356" lon="-4.281552">
   <ele>922.183594</ele>
   <time>2024-02-02T00:57:44Z</time>
  </trkpt>
  <trkpt lat="42.820540" lon="-4.281459">
   <ele>921.777344</ele>
   <time>2024-02-02T00:58:05Z</time>
  </trkpt>
  <trkpt lat="42.820798" lon="-4.281310">
   <ele>921.429688</ele>
   <time>2024-02-02T00:58:32Z</time>
  </trkpt>
  <trkpt lat="42.820905" lon="-4.281194">
   <ele>921.507813</ele>
   <time>2024-02-02T00:58:46Z</time>
  </trkpt>
  <trkpt lat="42.821026" lon="-4.280960">
   <ele>921.964844</ele>
   <time>2024-02-02T00:59:07Z</time>
  </trkpt>
  <trkpt lat="42.821013" lon="-4.280822">
   <ele>922.183594</ele>
   <time>2024-02-02T00:59:18Z</time>
  </trkpt>
  <trkpt lat="42.821048" lon="-4.280660">
   <ele>922.769531</ele>
   <time>2024-02-02T00:59:29Z</time>
  </trkpt>
  <trkpt lat="42.821114" lon="-4.280399">
   <ele>924.296875</ele>
   <time>2024-02-02T00:59:51Z</time>
  </trkpt>
  <trkpt lat="42.821164" lon="-4.280275">
   <ele>924.968750</ele>
   <time>2024-02-02T01:00:01Z</time>
  </trkpt>
  <trkpt lat="42.821258" lon="-4.280155">
   <ele>925.699219</ele>
   <time>2024-02-02T01:00:14Z</time>
  </trkpt>
  <trkpt lat="42.821380" lon="-4.280082">
   <ele>926.285156</ele>
   <time>2024-02-02T01:00:26Z</time>
  </trkpt>
  <trkpt lat="42.821490" lon="-4.280011">
   <ele>926.929688</ele>
   <time>2024-02-02T01:00:39Z</time>
  </trkpt>
  <trkpt lat="42.821592" lon="-4.279978">
   <ele>927.410156</ele>
   <time>2024-02-02T01:00:49Z</time>
  </trkpt>
  <trkpt lat="42.821657" lon="-4.279958">
   <ele>927.710938</ele>
   <time>2024-02-02T01:00:57Z</time>
  </trkpt>
  <trkpt lat="42.821697" lon="-4.279947">
   <ele>927.949219</ele>
   <time>2024-02-02T01:01:01Z</time>
  </trkpt>
  <trkpt lat="42.821729" lon="-4.279936">
   <ele>928.308594</ele>
   <time>2024-02-02T01:01:04Z</time>
  </trkpt>
  <trkpt lat="42.821778" lon="-4.279925">
   <ele>928.828125</ele>
   <time>2024-02-02T01:01:08Z</time>
  </trkpt>
  <trkpt lat="42.821826" lon="-4.279918">
   <ele>929.332031</ele>
   <time>2024-02-02T01:01:14Z</time>
  </trkpt>
  <trkpt lat="42.821876" lon="-4.279909">
   <ele>929.871094</ele>
   <time>2024-02-02T01:01:19Z</time>
  </trkpt>
  <trkpt lat="42.821914" lon="-4.279907">
   <ele>930.253906</ele>
   <time>2024-02-02T01:01:23Z</time>
  </trkpt>
  <trkpt lat="42.821952" lon="-4.279885">
   <ele>930.765625</ele>
   <time>2024-02-02T01:01:27Z</time>
  </trkpt>
  <trkpt lat="42.821982" lon="-4.279863">
   <ele>931.210938</ele>
   <time>2024-02-02T01:01:30Z</time>
  </trkpt>
  <trkpt lat="42.822043" lon="-4.279816">
   <ele>932.089844</ele>
   <time>2024-02-02T01:01:36Z</time>
  </trkpt>
  <trkpt lat="42.822327" lon="-4.279779">
   <ele>934.917969</ele>
   <time>2024-02-02T01:02:05Z</time>
  </trkpt>
  <trkpt lat="42.822696" lon="-4.279580">
   <ele>937.457031</ele>
   <time>2024-02-02T01:02:46Z</time>
  </trkpt>
  <trkpt lat="42.822781" lon="-4.279522">
   <ele>937.847656</ele>
   <time>2024-02-02T01:02:55Z</time>
  </trkpt>
  <trkpt lat="42.822969" lon="-4.279268">
   <ele>939.687500</ele>
   <time>2024-02-02T01:03:21Z</time>
  </trkpt>
  <trkpt lat="42.822999" lon="-4.279155">
   <ele>940.437500</ele>
   <time>2024-02-02T01:03:31Z</time>
  </trkpt>
  <trkpt lat="42.823004" lon="-4.279133">
   <ele>940.585938</ele>
   <time>2024-02-02T01:03:31Z</time>
  </trkpt>
  <trkpt lat="42.823010" lon="-4.279086">
   <ele>940.894531</ele>
   <time>2024-02-02T01:03:36Z</time>
  </trkpt>
  <trkpt lat="42.823021" lon="-4.278838">
   <ele>942.058594</ele>
   <time>2024-02-02T01:03:53Z</time>
  </trkpt>
  <trkpt lat="42.823101" lon="-4.278596">
   <ele>943.281250</ele>
   <time>2024-02-02T01:04:14Z</time>
  </trkpt>
  <trkpt lat="42.823184" lon="-4.278592">
   <ele>943.417969</ele>
   <time>2024-02-02T01:04:22Z</time>
  </trkpt>
  <trkpt lat="42.823292" lon="-4.278575">
   <ele>943.632813</ele>
   <time>2024-02-02T01:04:33Z</time>
  </trkpt>
  <trkpt lat="42.823650" lon="-4.278546">
   <ele>943.441406</ele>
   <time>2024-02-02T01:05:09Z</time>
  </trkpt>
  <trkpt lat="42.823847" lon="-4.278552">
   <ele>943.195313</ele>
   <time>2024-02-02T01:05:28Z</time>
  </trkpt>
  <trkpt lat="42.823881" lon="-4.278561">
   <ele>943.121094</ele>
   <time>2024-02-02T01:05:32Z</time>
  </trkpt>
  <trkpt lat="42.824250" lon="-4.278572">
   <ele>942.835938</ele>
   <time>2024-02-02T01:06:09Z</time>
  </trkpt>
  <trkpt lat="42.824353" lon="-4.278589">
   <ele>942.648438</ele>
   <time>2024-02-02T01:06:19Z</time>
  </trkpt>
  <trkpt lat="42.824569" lon="-4.278601">
   <ele>942.425781</ele>
   <time>2024-02-02T01:06:40Z</time>
  </trkpt>
  <trkpt lat="42.824965" lon="-4.278615">
   <ele>941.945313</ele>
   <time>2024-02-02T01:07:20Z</time>
  </trkpt>
  <trkpt lat="42.825125" lon="-4.278768">
   <ele>940.714844</ele>
   <time>2024-02-02T01:07:39Z</time>
  </trkpt>
  <trkpt lat="42.825389" lon="-4.279042">
   <ele>938.179688</ele>
   <time>2024-02-02T01:08:13Z</time>
  </trkpt>
  <trkpt lat="42.825461" lon="-4.279129">
   <ele>937.261719</ele>
   <time>2024-02-02T01:08:23Z</time>
  </trkpt>
  <trkpt lat="42.825630" lon="-4.279329">
   <ele>935.269531</ele>
   <time>2024-02-02T01:08:45Z</time>
  </trkpt>
  <trkpt lat="42.825768" lon="-4.279465">
   <ele>934.312500</ele>
   <time>2024-02-02T01:09:02Z</time>
  </trkpt>
  <trkpt lat="42.825815" lon="-4.279504">
   <ele>934.042969</ele>
   <time>2024-02-02T01:09:08Z</time>
  </trkpt>
  <trkpt lat="42.825863" lon="-4.279538">
   <ele>933.894531</ele>
   <time>2024-02-02T01:09:12Z</time>
  </trkpt>
  <trkpt lat="42.825864" lon="-4.279534">
   <ele>933.910156</ele>
   <time>2024-02-02T01:09:14Z</time>
  </trkpt>
  <trkpt lat="42.826141" lon="-4.279668">
   <ele>935.179688</ele>
   <time>2024-02-02T01:09:43Z</time>
  </trkpt>
  <trkpt lat="42.826493" lon="-4.279887">
   <ele>937.589844</ele>
   <time>2024-02-02T01:10:22Z</time>
  </trkpt>
  <trkpt lat="42.826661" lon="-4.279946">
   <ele>938.781250</ele>
   <time>2024-02-02T01:10:38Z</time>
  </trkpt>
  <trkpt lat="42.826864" lon="-4.279956">
   <ele>939.917969</ele>
   <time>2024-02-02T01:10:59Z</time>
  </trkpt>
  <trkpt lat="42.827048" lon="-4.279955">
   <ele>941.023438</ele>
   <time>2024-02-02T01:11:17Z</time>
  </trkpt>
  <trkpt lat="42.827244" lon="-4.280013">
   <ele>942.187500</ele>
   <time>2024-02-02T01:11:38Z</time>
  </trkpt>
  <trkpt lat="42.827587" lon="-4.280200">
   <ele>943.050781</ele>
   <time>2024-02-02T01:12:15Z</time>
  </trkpt>
  <trkpt lat="42.827966" lon="-4.280285">
   <ele>941.917969</ele>
   <time>2024-02-02T01:12:53Z</time>
  </trkpt>
  <trkpt lat="42.828144" lon="-4.280229">
   <ele>941.542969</ele>
   <time>2024-02-02T01:13:12Z</time>
  </trkpt>
  <trkpt lat="42.828199" lon="-4.280185">
   <ele>941.390625</ele>
   <time>2024-02-02T01:13:17Z</time>
  </trkpt>
  <trkpt lat="42.828327" lon="-4.280018">
   <ele>940.972656</ele>
   <time>2024-02-02T01:13:36Z</time>
  </trkpt>
  <trkpt lat="42.828591" lon="-4.279921">
   <ele>941.964844</ele>
   <time>2024-02-02T01:14:03Z</time>
  </trkpt>
  <trkpt lat="42.829065" lon="-4.279800">
   <ele>943.476563</ele>
   <time>2024-02-02T01:14:51Z</time>
  </trkpt>
  <trkpt lat="42.829143" lon="-4.279751">
   <ele>943.640625</ele>
   <time>2024-02-02T01:14:59Z</time>
  </trkpt>
  <trkpt lat="42.829434" lon="-4.279615">
   <ele>945.828125</ele>
   <time>2024-02-02T01:15:31Z</time>
  </trkpt>
  <trkpt lat="42.829727" lon="-4.279648">
   <ele>948.535156</ele>
   <time>2024-02-02T01:15:59Z</time>
  </trkpt>
  <trkpt lat="42.829892" lon="-4.279707">
   <ele>950.351563</ele>
   <time>2024-02-02T01:16:17Z</time>
  </trkpt>
  <trkpt lat="42.829992" lon="-4.279742">
   <ele>951.453125</ele>
   <time>2024-02-02T01:16:28Z</time>
  </trkpt>
  <trkpt lat="42.830335" lon="-4.279883">
   <ele>954.660156</ele>
   <time>2024-02-02T01:17:03Z</time>
  </trkpt>
  <trkpt lat="42.830698" lon="-4.280007">
   <ele>957.546875</ele>
   <time>2024-02-02T01:17:41Z</time>
  </trkpt>
  <trkpt lat="42.830831" lon="-4.280004">
   <ele>958.519531</ele>
   <time>2024-02-02T01:17:54Z</time>
  </trkpt>
  <trkpt lat="42.831188" lon="-4.279666">
   <ele>959.367188</ele>
   <time>2024-02-02T01:18:38Z</time>
  </trkpt>
  <trkpt lat="42.831261" lon="-4.279570">
   <ele>959.679688</ele>
   <time>2024-02-02T01:18:48Z</time>
  </trkpt>
  <trkpt lat="42.831495" lon="-4.279138">
   <ele>961.476563</ele>
   <time>2024-02-02T01:19:28Z</time>
  </trkpt>
  <trkpt lat="42.831837" lon="-4.278970">
   <ele>962.886719</ele>
   <time>2024-02-02T01:20:04Z</time>
  </trkpt>
  <trkpt lat="42.832142" lon="-4.278809">
   <ele>963.734375</ele>
   <time>2024-02-02T01:20:36Z</time>
  </trkpt>
  <trkpt lat="42.832270" lon="-4.278761">
   <ele>964.203125</ele>
   <time>2024-02-02T01:20:49Z</time>
  </trkpt>
  <trkpt lat="42.832374" lon="-4.278743">
   <ele>964.605469</ele>
   <time>2024-02-02T01:21:00Z</time>
  </trkpt>
  <trkpt lat="42.832675" lon="-4.278663">
   <ele>965.902344</ele>
   <time>2024-02-02T01:21:30Z</time>
  </trkpt>
  <trkpt lat="42.832938" lon="-4.278541">
   <ele>967.031250</ele>
   <time>2024-02-02T01:21:59Z</time>
  </trkpt>
  <trkpt lat="42.833308" lon="-4.278506">
   <ele>968.199219</ele>
   <time>2024-02-02T01:22:36Z</time>
  </trkpt>
  <trkpt lat="42.833477" lon="-4.278604">
   <ele>968.687500</ele>
   <time>2024-02-02T01:22:53Z</time>
  </trkpt>
  <trkpt lat="42.833934" lon="-4.278959">
   <ele>969.933594</ele>
   <time>2024-02-02T01:23:47Z</time>
  </trkpt>
  <trkpt lat="42.834355" lon="-4.279268">
   <ele>969.843750</ele>
   <time>2024-02-02T01:24:35Z</time>
  </trkpt>
  <trkpt lat="42.834784" lon="-4.279630">
   <ele>969.003906</ele>
   <time>2024-02-02T01:25:25Z</time>
  </trkpt>
  <trkpt lat="42.835168" lon="-4.279983">
   <ele>968.683594</ele>
   <time>2024-02-02T01:26:12Z</time>
  </trkpt>
  <trkpt lat="42.835279" lon="-4.280143">
   <ele>968.128906</ele>
   <time>2024-02-02T01:26:28Z</time>
  </trkpt>
  <trkpt lat="42.835281" lon="-4.280141">
   <ele>968.128906</ele>
   <time>2024-02-02T01:26:28Z</time>
  </trkpt>
  <trkpt lat="42.835487" lon="-4.280465">
   <ele>966.824219</ele>
   <time>2024-02-02T01:27:00Z</time>
  </trkpt>
  <trkpt lat="42.835690" lon="-4.280815">
   <ele>965.164063</ele>
   <time>2024-02-02T01:27:32Z</time>
  </trkpt>
  <trkpt lat="42.835955" lon="-4.281154">
   <ele>966.023438</ele>
   <time>2024-02-02T01:28:08Z</time>
  </trkpt>
  <trkpt lat="42.836294" lon="-4.281352">
   <ele>970.558594</ele>
   <time>2024-02-02T01:28:46Z</time>
  </trkpt>
  <trkpt lat="42.836391" lon="-4.281415">
   <ele>971.871094</ele>
   <time>2024-02-02T01:28:56Z</time>
  </trkpt>
  <trkpt lat="42.836522" lon="-4.281496">
   <ele>973.695313</ele>
   <time>2024-02-02T01:29:10Z</time>
  </trkpt>
  <trkpt lat="42.836810" lon="-4.281714">
   <ele>976.082031</ele>
   <time>2024-02-02T01:29:44Z</time>
  </trkpt>
  <trkpt lat="42.837136" lon="-4.281956">
   <ele>976.765625</ele>
   <time>2024-02-02T01:30:20Z</time>
  </trkpt>
  <trkpt lat="42.837222" lon="-4.282011">
   <ele>976.960938</ele>
   <time>2024-02-02T01:30:31Z</time>
  </trkpt>
  <trkpt lat="42.837548" lon="-4.282066">
   <ele>978.152344</ele>
   <time>2024-02-02T01:31:03Z</time>
  </trkpt>
  <trkpt lat="42.837617" lon="-4.282069">
   <ele>977.980469</ele>
   <time>2024-02-02T01:31:10Z</time>
  </trkpt>
  <trkpt lat="42.837843" lon="-4.282163">
   <ele>977.316406</ele>
   <time>2024-02-02T01:31:34Z</time>
  </trkpt>
  <trkpt lat="42.837860" lon="-4.282179">
   <ele>977.273438</ele>
   <time>2024-02-02T01:31:35Z</time>
  </trkpt>
  <trkpt lat="42.837858" lon="-4.282178">
   <ele>977.273438</ele>
   <time>2024-02-02T01:31:35Z</time>
  </trkpt>
  <trkpt lat="42.837859" lon="-4.282178">
   <ele>977.273438</ele>
   <time>2024-02-02T01:31:35Z</time>
  </trkpt>
  <trkpt lat="42.837908" lon="-4.282230">
   <ele>977.144531</ele>
   <time>2024-02-02T01:31:42Z</time>
  </trkpt>
  <trkpt lat="42.838151" lon="-4.282545">
   <ele>976.750000</ele>
   <time>2024-02-02T01:32:16Z</time>
  </trkpt>
  <trkpt lat="42.838140" lon="-4.282569">
   <ele>976.722656</ele>
   <time>2024-02-02T01:32:17Z</time>
  </trkpt>
  <trkpt lat="42.838374" lon="-4.282804">
   <ele>976.527344</ele>
   <time>2024-02-02T01:32:47Z</time>
  </trkpt>
  <trkpt lat="42.838479" lon="-4.282903">
   <ele>975.371094</ele>
   <time>2024-02-02T01:33:00Z</time>
  </trkpt>
  <trkpt lat="42.838793" lon="-4.283234">
   <ele>971.910156</ele>
   <time>2024-02-02T01:33:39Z</time>
  </trkpt>
  <trkpt lat="42.839064" lon="-4.283644">
   <ele>968.953125</ele>
   <time>2024-02-02T01:34:21Z</time>
  </trkpt>
  <trkpt lat="42.839090" lon="-4.283701">
   <ele>968.710938</ele>
   <time>2024-02-02T01:34:26Z</time>
  </trkpt>
  <trkpt lat="42.839337" lon="-4.284237">
   <ele>966.601563</ele>
   <time>2024-02-02T01:35:12Z</time>
  </trkpt>
  <trkpt lat="42.839529" lon="-4.284648">
   <ele>965.312500</ele>
   <time>2024-02-02T01:35:47Z</time>
  </trkpt>
  <trkpt lat="42.839699" lon="-4.285045">
   <ele>963.550781</ele>
   <time>2024-02-02T01:36:22Z</time>
  </trkpt>
  <trkpt lat="42.839828" lon="-4.285449">
   <ele>960.359375</ele>
   <time>2024-02-02T01:36:54Z</time>
  </trkpt>
  <trkpt lat="42.839911" lon="-4.285721">
   <ele>958.191406</ele>
   <time>2024-02-02T01:37:16Z</time>
  </trkpt>
  <trkpt lat="42.839964" lon="-4.286017">
   <ele>957.640625</ele>
   <time>2024-02-02T01:37:38Z</time>
  </trkpt>
  <trkpt lat="42.840029" lon="-4.286400">
   <ele>957.351563</ele>
   <time>2024-02-02T01:38:07Z</time>
  </trkpt>
  <trkpt lat="42.840065" lon="-4.286601">
   <ele>957.812500</ele>
   <time>2024-02-02T01:38:23Z</time>
  </trkpt>
  <trkpt lat="42.839926" lon="-4.286943">
   <ele>959.500000</ele>
   <time>2024-02-02T01:38:51Z</time>
  </trkpt>
  <trkpt lat="42.839567" lon="-4.287116">
   <ele>958.937500</ele>
   <time>2024-02-02T01:39:29Z</time>
  </trkpt>
  <trkpt lat="42.839216" lon="-4.287132">
   <ele>957.398438</ele>
   <time>2024-02-02T01:40:05Z</time>
  </trkpt>
  <trkpt lat="42.839140" lon="-4.287108">
   <ele>956.757813</ele>
   <time>2024-02-02T01:40:11Z</time>
  </trkpt>
  <trkpt lat="42.838864" lon="-4.286959">
   <ele>954.054688</ele>
   <time>2024-02-02T01:40:42Z</time>
  </trkpt>
  <trkpt lat="42.838863" lon="-4.286962">
   <ele>954.062500</ele>
   <time>2024-02-02T01:40:42Z</time>
  </trkpt>
  <trkpt lat="42.838814" lon="-4.287070">
   <ele>954.132813</ele>
   <time>2024-02-02T01:40:52Z</time>
  </trkpt>
  <trkpt lat="42.838812" lon="-4.287061">
   <ele>954.085938</ele>
   <time>2024-02-02T01:40:52Z</time>
  </trkpt>
  <trkpt lat="42.838856" lon="-4.287099">
   <ele>954.550781</ele>
   <time>2024-02-02T01:40:58Z</time>
  </trkpt>
  <trkpt lat="42.838908" lon="-4.287129">
   <ele>955.082031</ele>
   <time>2024-02-02T01:41:02Z</time>
  </trkpt>
  <trkpt lat="42.839101" lon="-4.287342">
   <ele>958.054688</ele>
   <time>2024-02-02T01:41:28Z</time>
  </trkpt>
  <trkpt lat="42.839247" lon="-4.287500">
   <ele>959.894531</ele>
   <time>2024-02-02T01:41:47Z</time>
  </trkpt>
  <trkpt lat="42.839401" lon="-4.287651">
   <ele>961.273438</ele>
   <time>2024-02-02T01:42:06Z</time>
  </trkpt>
  <trkpt lat="42.839596" lon="-4.287909">
   <ele>963.187500</ele>
   <time>2024-02-02T01:42:33Z</time>
  </trkpt>
  <trkpt lat="42.839811" lon="-4.288237">
   <ele>965.824219</ele>
   <time>2024-02-02T01:43:06Z</time>
  </trkpt>
  <trkpt lat="42.839806" lon="-4.288256">
   <ele>965.816406</ele>
   <time>2024-02-02T01:43:06Z</time>
  </trkpt>
  <trkpt lat="42.839945" lon="-4.288404">
   <ele>966.894531</ele>
   <time>2024-02-02T01:43:25Z</time>
  </trkpt>
  <trkpt lat="42.840157" lon="-4.288720">
   <ele>968.601563</ele>
   <time>2024-02-02T01:43:56Z</time>
  </trkpt>
  <trkpt lat="42.840208" lon="-4.288804">
   <ele>969.082031</ele>
   <time>2024-02-02T01:44:04Z</time>
  </trkpt>
  <trkpt lat="42.840441" lon="-4.289184">
   <ele>971.253906</ele>
   <time>2024-02-02T01:44:41Z</time>
  </trkpt>
  <trkpt lat="42.840494" lon="-4.289299">
   <ele>971.730469</ele>
   <time>2024-02-02T01:44:51Z</time>
  </trkpt>
  <trkpt lat="42.840630" lon="-4.289496">
   <ele>972.726563</ele>
   <time>2024-02-02T01:45:10Z</time>
  </trkpt>
  <trkpt lat="42.840833" lon="-4.289829">
   <ele>974.066406</ele>
   <time>2024-02-02T01:45:42Z</time>
  </trkpt>
  <trkpt lat="42.841023" lon="-4.290250">
   <ele>975.980469</ele>
   <time>2024-02-02T01:46:19Z</time>
  </trkpt>
  <trkpt lat="42.841269" lon="-4.290821">
   <ele>978.972656</ele>
   <time>2024-02-02T01:47:08Z</time>
  </trkpt>
  <trkpt lat="42.841506" lon="-4.291333">
   <ele>981.988281</ele>
   <time>2024-02-02T01:47:52Z</time>
  </trkpt>
  <trkpt lat="42.841688" lon="-4.291810">
   <ele>984.171875</ele>
   <time>2024-02-02T01:48:31Z</time>
  </trkpt>
  <trkpt lat="42.841917" lon="-4.292226">
   <ele>985.300781</ele>
   <time>2024-02-02T01:49:09Z</time>
  </trkpt>
  <trkpt lat="42.841924" lon="-4.292228">
   <ele>985.316406</ele>
   <time>2024-02-02T01:49:11Z</time>
  </trkpt>
  <trkpt lat="42.842049" lon="-4.292451">
   <ele>985.941406</ele>
   <time>2024-02-02T01:49:31Z</time>
  </trkpt>
  <trkpt lat="42.842148" lon="-4.292733">
   <ele>986.429688</ele>
   <time>2024-02-02T01:49:54Z</time>
  </trkpt>
  <trkpt lat="42.842262" lon="-4.293215">
   <ele>987.031250</ele>
   <time>2024-02-02T01:50:32Z</time>
  </trkpt>
  <trkpt lat="42.842433" lon="-4.293863">
   <ele>989.125000</ele>
   <time>2024-02-02T01:51:22Z</time>
  </trkpt>
  <trkpt lat="42.842489" lon="-4.294091">
   <ele>989.808594</ele>
   <time>2024-02-02T01:51:39Z</time>
  </trkpt>
  <trkpt lat="42.842514" lon="-4.294182">
   <ele>989.824219</ele>
   <time>2024-02-02T01:51:47Z</time>
  </trkpt>
  <trkpt lat="42.842594" lon="-4.294546">
   <ele>989.503906</ele>
   <time>2024-02-02T01:52:14Z</time>
  </trkpt>
  <trkpt lat="42.842732" lon="-4.295023">
   <ele>988.757813</ele>
   <time>2024-02-02T01:52:52Z</time>
  </trkpt>
  <trkpt lat="42.842787" lon="-4.295396">
   <ele>986.859375</ele>
   <time>2024-02-02T01:53:21Z</time>
  </trkpt>
  <trkpt lat="42.842785" lon="-4.295664">
   <ele>985.625000</ele>
   <time>2024-02-02T01:53:40Z</time>
  </trkpt>
  <trkpt lat="42.842784" lon="-4.295817">
   <ele>984.949219</ele>
   <time>2024-02-02T01:53:52Z</time>
  </trkpt>
  <trkpt lat="42.842748" lon="-4.296472">
   <ele>981.847656</ele>
   <time>2024-02-02T01:54:40Z</time>
  </trkpt>
  <trkpt lat="42.842822" lon="-4.297144">
   <ele>979.027344</ele>
   <time>2024-02-02T01:55:30Z</time>
  </trkpt>
  <trkpt lat="42.842930" lon="-4.297697">
   <ele>976.863281</ele>
   <time>2024-02-02T01:56:12Z</time>
  </trkpt>
  <trkpt lat="42.842998" lon="-4.298189">
   <ele>974.828125</ele>
   <time>2024-02-02T01:56:48Z</time>
  </trkpt>
  <trkpt lat="42.843022" lon="-4.298514">
   <ele>973.066406</ele>
   <time>2024-02-02T01:57:13Z</time>
  </trkpt>
  <trkpt lat="42.843097" lon="-4.298762">
   <ele>971.925781</ele>
   <time>2024-02-02T01:57:32Z</time>
  </trkpt>
  <trkpt lat="42.843075" lon="-4.298747">
   <ele>971.902344</ele>
   <time>2024-02-02T01:57:35Z</time>
  </trkpt>
  <trkpt lat="42.843314" lon="-4.298930">
   <ele>971.847656</ele>
   <time>2024-02-02T01:58:03Z</time>
  </trkpt>
  <trkpt lat="42.843343" lon="-4.298970">
   <ele>971.695313</ele>
   <time>2024-02-02T01:58:07Z</time>
  </trkpt>
  <trkpt lat="42.843364" lon="-4.299128">
   <ele>971.035156</ele>
   <time>2024-02-02T01:58:18Z</time>
  </trkpt>
  <trkpt lat="42.843335" lon="-4.299540">
   <ele>969.199219</ele>
   <time>2024-02-02T01:58:49Z</time>
  </trkpt>
  <trkpt lat="42.843219" lon="-4.300054">
   <ele>968.332031</ele>
   <time>2024-02-02T01:59:28Z</time>
  </trkpt>
  <trkpt lat="42.843289" lon="-4.300488">
   <ele>970.175781</ele>
   <time>2024-02-02T02:00:02Z</time>
  </trkpt>
  <trkpt lat="42.843474" lon="-4.301016">
   <ele>972.699219</ele>
   <time>2024-02-02T02:00:45Z</time>
  </trkpt>
  <trkpt lat="42.843650" lon="-4.301495">
   <ele>974.816406</ele>
   <time>2024-02-02T02:01:24Z</time>
  </trkpt>
  <trkpt lat="42.843754" lon="-4.301970">
   <ele>975.816406</ele>
   <time>2024-02-02T02:02:00Z</time>
  </trkpt>
  <trkpt lat="42.843750" lon="-4.302289">
   <ele>976.304688</ele>
   <time>2024-02-02T02:02:24Z</time>
  </trkpt>
  <trkpt lat="42.843742" lon="-4.302563">
   <ele>975.988281</ele>
   <time>2024-02-02T02:02:44Z</time>
  </trkpt>
  <trkpt lat="42.843750" lon="-4.303092">
   <ele>974.847656</ele>
   <time>2024-02-02T02:03:23Z</time>
  </trkpt>
  <trkpt lat="42.843768" lon="-4.303383">
   <ele>973.812500</ele>
   <time>2024-02-02T02:03:45Z</time>
  </trkpt>
  <trkpt lat="42.843805" lon="-4.303628">
   <ele>972.699219</ele>
   <time>2024-02-02T02:04:03Z</time>
  </trkpt>
  <trkpt lat="42.843813" lon="-4.303660">
   <ele>972.546875</ele>
   <time>2024-02-02T02:04:05Z</time>
  </trkpt>
  <trkpt lat="42.843831" lon="-4.304297">
   <ele>968.734375</ele>
   <time>2024-02-02T02:04:52Z</time>
  </trkpt>
  <trkpt lat="42.843839" lon="-4.304552">
   <ele>967.003906</ele>
   <time>2024-02-02T02:05:11Z</time>
  </trkpt>
  <trkpt lat="42.843848" lon="-4.304789">
   <ele>965.238281</ele>
   <time>2024-02-02T02:05:29Z</time>
  </trkpt>
  <trkpt lat="42.843872" lon="-4.305485">
   <ele>961.851563</ele>
   <time>2024-02-02T02:06:20Z</time>
  </trkpt>
  <trkpt lat="42.843897" lon="-4.305805">
   <ele>961.011719</ele>
   <time>2024-02-02T02:06:43Z</time>
  </trkpt>
  <trkpt lat="42.843941" lon="-4.306037">
   <ele>960.867188</ele>
   <time>2024-02-02T02:07:02Z</time>
  </trkpt>
  <trkpt lat="42.844000" lon="-4.306375">
   <ele>960.671875</ele>
   <time>2024-02-02T02:07:27Z</time>
  </trkpt>
  <trkpt lat="42.844026" lon="-4.306768">
   <ele>959.351563</ele>
   <time>2024-02-02T02:07:56Z</time>
  </trkpt>
  <trkpt lat="42.844030" lon="-4.306879">
   <ele>958.757813</ele>
   <time>2024-02-02T02:08:03Z</time>
  </trkpt>
  <trkpt lat="42.843936" lon="-4.307374">
   <ele>956.628906</ele>
   <time>2024-02-02T02:08:41Z</time>
  </trkpt>
  <trkpt lat="42.843810" lon="-4.307760">
   <ele>955.578125</ele>
   <time>2024-02-02T02:09:13Z</time>
  </trkpt>
  <trkpt lat="42.843806" lon="-4.307798">
   <ele>955.457031</ele>
   <time>2024-02-02T02:09:16Z</time>
  </trkpt>
  <trkpt lat="42.843773" lon="-4.308267">
   <ele>954.164063</ele>
   <time>2024-02-02T02:09:51Z</time>
  </trkpt>
  <trkpt lat="42.843778" lon="-4.308319">
   <ele>954.300781</ele>
   <time>2024-02-02T02:09:54Z</time>
  </trkpt>
  <trkpt lat="42.843788" lon="-4.308325">
   <ele>954.312500</ele>
   <time>2024-02-02T02:09:56Z</time>
  </trkpt>
  <trkpt lat="42.843785" lon="-4.308314">
   <ele>954.285156</ele>
   <time>2024-02-02T02:09:57Z</time>
  </trkpt>
  <trkpt lat="42.843783" lon="-4.308302">
   <ele>954.253906</ele>
   <time>2024-02-02T02:09:57Z</time>
  </trkpt>
  <trkpt lat="42.843753" lon="-4.308329">
   <ele>954.339844</ele>
   <time>2024-02-02T02:10:01Z</time>
  </trkpt>
  <trkpt lat="42.843767" lon="-4.308317">
   <ele>954.300781</ele>
   <time>2024-02-02T02:10:03Z</time>
  </trkpt>
  <trkpt lat="42.843682" lon="-4.308379">
   <ele>954.527344</ele>
   <time>2024-02-02T02:10:12Z</time>
  </trkpt>
  <trkpt lat="42.843667" lon="-4.308383">
   <ele>954.550781</ele>
   <time>2024-02-02T02:10:13Z</time>
  </trkpt>
  <trkpt lat="42.843626" lon="-4.308465">
   <ele>954.843750</ele>
   <time>2024-02-02T02:10:20Z</time>
  </trkpt>
  <trkpt lat="42.843413" lon="-4.308616">
   <ele>955.453125</ele>
   <time>2024-02-02T02:10:45Z</time>
  </trkpt>
  <trkpt lat="42.843262" lon="-4.308697">
   <ele>955.800781</ele>
   <time>2024-02-02T02:11:01Z</time>
  </trkpt>
  <trkpt lat="42.842990" lon="-4.308940">
   <ele>956.367188</ele>
   <time>2024-02-02T02:11:33Z</time>
  </trkpt>
  <trkpt lat="42.842923" lon="-4.308962">
   <ele>956.378906</ele>
   <time>2024-02-02T02:11:41Z</time>
  </trkpt>
  <trkpt lat="42.842813" lon="-4.309165">
   <ele>957.402344</ele>
   <time>2024-02-02T02:11:58Z</time>
  </trkpt>
  <trkpt lat="42.842741" lon="-4.309322">
   <ele>958.605469</ele>
   <time>2024-02-02T02:12:13Z</time>
  </trkpt>
  <trkpt lat="42.842692" lon="-4.309493">
   <ele>959.917969</ele>
   <time>2024-02-02T02:12:27Z</time>
  </trkpt>
  <trkpt lat="42.842676" lon="-4.309621">
   <ele>960.980469</ele>
   <time>2024-02-02T02:12:36Z</time>
  </trkpt>
  <trkpt lat="42.842680" lon="-4.309853">
   <ele>962.937500</ele>
   <time>2024-02-02T02:12:52Z</time>
  </trkpt>
  <trkpt lat="42.842529" lon="-4.310296">
   <ele>965.824219</ele>
   <time>2024-02-02T02:13:29Z</time>
  </trkpt>
  <trkpt lat="42.842451" lon="-4.310388">
   <ele>966.613281</ele>
   <time>2024-02-02T02:13:40Z</time>
  </trkpt>
  <trkpt lat="42.842390" lon="-4.310634">
   <ele>968.371094</ele>
   <time>2024-02-02T02:13:59Z</time>
  </trkpt>
  <trkpt lat="42.842612" lon="-4.310929">
   <ele>969.257813</ele>
   <time>2024-02-02T02:14:30Z</time>
  </trkpt>
  <trkpt lat="42.842794" lon="-4.311082">
   <ele>969.644531</ele>
   <time>2024-02-02T02:14:50Z</time>
  </trkpt>
  <trkpt lat="42.842833" lon="-4.311146">
   <ele>969.921875</ele>
   <time>2024-02-02T02:14:57Z</time>
  </trkpt>
  <trkpt lat="42.842977" lon="-4.311505">
   <ele>971.886719</ele>
   <time>2024-02-02T02:15:28Z</time>
  </trkpt>
  <trkpt lat="42.842987" lon="-4.311566">
   <ele>972.218750</ele>
   <time>2024-02-02T02:15:32Z</time>
  </trkpt>
  <trkpt lat="42.843008" lon="-4.311667">
   <ele>972.546875</ele>
   <time>2024-02-02T02:15:40Z</time>
  </trkpt>
  <trkpt lat="42.843076" lon="-4.311985">
   <ele>973.765625</ele>
   <time>2024-02-02T02:16:03Z</time>
  </trkpt>
  <trkpt lat="42.843163" lon="-4.312222">
   <ele>974.648438</ele>
   <time>2024-02-02T02:16:24Z</time>
  </trkpt>
  <trkpt lat="42.843202" lon="-4.312389">
   <ele>975.378906</ele>
   <time>2024-02-02T02:16:37Z</time>
  </trkpt>
  <trkpt lat="42.843211" lon="-4.312414">
   <ele>975.410156</ele>
   <time>2024-02-02T02:16:39Z</time>
  </trkpt>
  <trkpt lat="42.843182" lon="-4.312755">
   <ele>976.226563</ele>
   <time>2024-02-02T02:17:04Z</time>
  </trkpt>
  <trkpt lat="42.843249" lon="-4.313281">
   <ele>977.085938</ele>
   <time>2024-02-02T02:17:42Z</time>
  </trkpt>
  <trkpt lat="42.843432" lon="-4.313763">
   <ele>975.652344</ele>
   <time>2024-02-02T02:18:23Z</time>
  </trkpt>
  <trkpt lat="42.843496" lon="-4.314086">
   <ele>974.730469</ele>
   <time>2024-02-02T02:18:47Z</time>
  </trkpt>
  <trkpt lat="42.843512" lon="-4.314390">
   <ele>974.480469</ele>
   <time>2024-02-02T02:19:10Z</time>
  </trkpt>
  <trkpt lat="42.843538" lon="-4.314671">
   <ele>974.171875</ele>
   <time>2024-02-02T02:19:30Z</time>
  </trkpt>
  <trkpt lat="42.843558" lon="-4.314875">
   <ele>973.832031</ele>
   <time>2024-02-02T02:19:46Z</time>
  </trkpt>
  <trkpt lat="42.843633" lon="-4.315425">
   <ele>972.496094</ele>
   <time>2024-02-02T02:20:27Z</time>
  </trkpt>
  <trkpt lat="42.843726" lon="-4.315986">
   <ele>971.281250</ele>
   <time>2024-02-02T02:21:09Z</time>
  </trkpt>
  <trkpt lat="42.843733" lon="-4.316254">
   <ele>971.527344</ele>
   <time>2024-02-02T02:21:28Z</time>
  </trkpt>
  <trkpt lat="42.843728" lon="-4.316902">
   <ele>972.027344</ele>
   <time>2024-02-02T02:22:16Z</time>
  </trkpt>
  <trkpt lat="42.843737" lon="-4.317642">
   <ele>971.875000</ele>
   <time>2024-02-02T02:23:12Z</time>
  </trkpt>
  <trkpt lat="42.843680" lon="-4.318495">
   <ele>970.851563</ele>
   <time>2024-02-02T02:24:14Z</time>
  </trkpt>
  <trkpt lat="42.843589" lon="-4.318990">
   <ele>972.132813</ele>
   <time>2024-02-02T02:24:52Z</time>
  </trkpt>
  <trkpt lat="42.843477" lon="-4.319585">
   <ele>974.738281</ele>
   <time>2024-02-02T02:25:37Z</time>
  </trkpt>
  <trkpt lat="42.843370" lon="-4.320289">
   <ele>976.656250</ele>
   <time>2024-02-02T02:26:30Z</time>
  </trkpt>
  <trkpt lat="42.843233" lon="-4.320942">
   <ele>977.218750</ele>
   <time>2024-02-02T02:27:20Z</time>
  </trkpt>
  <trkpt lat="42.843224" lon="-4.321065">
   <ele>977.289063</ele>
   <time>2024-02-02T02:27:28Z</time>
  </trkpt>
  <trkpt lat="42.843082" lon="-4.321678">
   <ele>977.660156</ele>
   <time>2024-02-02T02:28:16Z</time>
  </trkpt>
  <trkpt lat="42.842959" lon="-4.322178">
   <ele>976.421875</ele>
   <time>2024-02-02T02:28:54Z</time>
  </trkpt>
  <trkpt lat="42.842932" lon="-4.322372">
   <ele>975.894531</ele>
   <time>2024-02-02T02:29:10Z</time>
  </trkpt>
  <trkpt lat="42.843162" lon="-4.322790">
   <ele>973.460938</ele>
   <time>2024-02-02T02:29:48Z</time>
  </trkpt>
  <trkpt lat="42.843360" lon="-4.323255">
   <ele>971.757813</ele>
   <time>2024-02-02T02:30:28Z</time>
  </trkpt>
  <trkpt lat="42.843521" lon="-4.323742">
   <ele>969.503906</ele>
   <time>2024-02-02T02:31:07Z</time>
  </trkpt>
  <trkpt lat="42.843647" lon="-4.324273">
   <ele>967.500000</ele>
   <time>2024-02-02T02:31:48Z</time>
  </trkpt>
  <trkpt lat="42.843665" lon="-4.324295">
   <ele>967.410156</ele>
   <time>2024-02-02T02:31:51Z</time>
  </trkpt>
  <trkpt lat="42.843809" lon="-4.324694">
   <ele>966.328125</ele>
   <time>2024-02-02T02:32:23Z</time>
  </trkpt>
  <trkpt lat="42.843809" lon="-4.324716">
   <ele>966.273438</ele>
   <time>2024-02-02T02:32:24Z</time>
  </trkpt>
  <trkpt lat="42.844042" lon="-4.325136">
   <ele>966.945313</ele>
   <time>2024-02-02T02:33:04Z</time>
  </trkpt>
  <trkpt lat="42.844276" lon="-4.325424">
   <ele>967.812500</ele>
   <time>2024-02-02T02:33:34Z</time>
  </trkpt>
  <trkpt lat="42.844276" lon="-4.325446">
   <ele>967.886719</ele>
   <time>2024-02-02T02:33:37Z</time>
  </trkpt>
  <trkpt lat="42.844456" lon="-4.325800">
   <ele>968.546875</ele>
   <time>2024-02-02T02:34:09Z</time>
  </trkpt>
  <trkpt lat="42.844779" lon="-4.326398">
   <ele>969.785156</ele>
   <time>2024-02-02T02:35:03Z</time>
  </trkpt>
  <trkpt lat="42.844851" lon="-4.326530">
   <ele>970.023438</ele>
   <time>2024-02-02T02:35:14Z</time>
  </trkpt>
  <trkpt lat="42.845067" lon="-4.326929">
   <ele>970.757813</ele>
   <time>2024-02-02T02:35:51Z</time>
  </trkpt>
  <trkpt lat="42.845067" lon="-4.326951">
   <ele>970.789063</ele>
   <time>2024-02-02T02:35:53Z</time>
  </trkpt>
  <trkpt lat="42.845210" lon="-4.327482">
   <ele>972.363281</ele>
   <time>2024-02-02T02:36:35Z</time>
  </trkpt>
  <trkpt lat="42.845210" lon="-4.327504">
   <ele>972.433594</ele>
   <time>2024-02-02T02:36:36Z</time>
  </trkpt>
  <trkpt lat="42.845336" lon="-4.328146">
   <ele>975.406250</ele>
   <time>2024-02-02T02:37:25Z</time>
  </trkpt>
  <trkpt lat="42.845480" lon="-4.328788">
   <ele>976.523438</ele>
   <time>2024-02-02T02:38:14Z</time>
  </trkpt>
  <trkpt lat="42.845480" lon="-4.328854">
   <ele>976.542969</ele>
   <time>2024-02-02T02:38:20Z</time>
  </trkpt>
  <trkpt lat="42.845588" lon="-4.329628">
   <ele>976.664063</ele>
   <time>2024-02-02T02:39:18Z</time>
  </trkpt>
  <trkpt lat="42.845588" lon="-4.330248">
   <ele>977.703125</ele>
   <time>2024-02-02T02:40:03Z</time>
  </trkpt>
  <trkpt lat="42.845677" lon="-4.330580">
   <ele>979.386719</ele>
   <time>2024-02-02T02:40:28Z</time>
  </trkpt>
  <trkpt lat="42.845677" lon="-4.330624">
   <ele>979.535156</ele>
   <time>2024-02-02T02:40:33Z</time>
  </trkpt>
  <trkpt lat="42.845803" lon="-4.331532">
   <ele>976.781250</ele>
   <time>2024-02-02T02:41:41Z</time>
  </trkpt>
  <trkpt lat="42.845803" lon="-4.331554">
   <ele>976.730469</ele>
   <time>2024-02-02T02:41:41Z</time>
  </trkpt>
  <trkpt lat="42.845749" lon="-4.332018">
   <ele>975.515625</ele>
   <time>2024-02-02T02:42:16Z</time>
  </trkpt>
  <trkpt lat="42.845749" lon="-4.332041">
   <ele>975.460938</ele>
   <time>2024-02-02T02:42:18Z</time>
  </trkpt>
  <trkpt lat="42.845695" lon="-4.332550">
   <ele>975.296875</ele>
   <time>2024-02-02T02:42:56Z</time>
  </trkpt>
  <trkpt lat="42.845695" lon="-4.332572">
   <ele>975.382813</ele>
   <time>2024-02-02T02:42:58Z</time>
  </trkpt>
  <trkpt lat="42.845642" lon="-4.333191">
   <ele>977.859375</ele>
   <time>2024-02-02T02:43:44Z</time>
  </trkpt>
  <trkpt lat="42.845642" lon="-4.333302">
   <ele>978.109375</ele>
   <time>2024-02-02T02:43:52Z</time>
  </trkpt>
  <trkpt lat="42.845552" lon="-4.333678">
   <ele>979.082031</ele>
   <time>2024-02-02T02:44:21Z</time>
  </trkpt>
  <trkpt lat="42.845552" lon="-4.333767">
   <ele>979.375000</ele>
   <time>2024-02-02T02:44:27Z</time>
  </trkpt>
  <trkpt lat="42.845534" lon="-4.334231">
   <ele>981.355469</ele>
   <time>2024-02-02T02:45:02Z</time>
  </trkpt>
  <trkpt lat="42.845534" lon="-4.334320">
   <ele>981.832031</ele>
   <time>2024-02-02T02:45:08Z</time>
  </trkpt>
  <trkpt lat="42.845677" lon="-4.334785">
   <ele>984.476563</ele>
   <time>2024-02-02T02:45:46Z</time>
  </trkpt>
  <trkpt lat="42.845695" lon="-4.334829">
   <ele>984.757813</ele>
   <time>2024-02-02T02:45:49Z</time>
  </trkpt>
  <trkpt lat="42.846055" lon="-4.335338">
   <ele>985.789063</ele>
   <time>2024-02-02T02:46:41Z</time>
  </trkpt>
  <trkpt lat="42.846091" lon="-4.335404">
   <ele>985.792969</ele>
   <time>2024-02-02T02:46:47Z</time>
  </trkpt>
  <trkpt lat="42.846468" lon="-4.336267">
   <ele>986.929688</ele>
   <time>2024-02-02T02:48:00Z</time>
  </trkpt>
  <trkpt lat="42.846648" lon="-4.336621">
   <ele>987.714844</ele>
   <time>2024-02-02T02:48:32Z</time>
  </trkpt>
  <trkpt lat="42.846720" lon="-4.336710">
   <ele>988.058594</ele>
   <time>2024-02-02T02:48:42Z</time>
  </trkpt>
  <trkpt lat="42.846935" lon="-4.337263">
   <ele>990.417969</ele>
   <time>2024-02-02T02:49:28Z</time>
  </trkpt>
  <trkpt lat="42.847276" lon="-4.337905">
   <ele>989.207031</ele>
   <time>2024-02-02T02:50:27Z</time>
  </trkpt>
  <trkpt lat="42.847456" lon="-4.338480">
   <ele>987.679688</ele>
   <time>2024-02-02T02:51:13Z</time>
  </trkpt>
  <trkpt lat="42.847474" lon="-4.338502">
   <ele>987.597656</ele>
   <time>2024-02-02T02:51:14Z</time>
  </trkpt>
  <trkpt lat="42.847708" lon="-4.338923">
   <ele>987.257813</ele>
   <time>2024-02-02T02:51:53Z</time>
  </trkpt>
  <trkpt lat="42.847726" lon="-4.338967">
   <ele>987.230469</ele>
   <time>2024-02-02T02:51:57Z</time>
  </trkpt>
  <trkpt lat="42.847851" lon="-4.339432">
   <ele>986.406250</ele>
   <time>2024-02-02T02:52:34Z</time>
  </trkpt>
  <trkpt lat="42.847851" lon="-4.339454">
   <ele>986.359375</ele>
   <time>2024-02-02T02:52:36Z</time>
  </trkpt>
  <trkpt lat="42.847995" lon="-4.339896">
   <ele>985.542969</ele>
   <time>2024-02-02T02:53:11Z</time>
  </trkpt>
  <trkpt lat="42.848031" lon="-4.339985">
   <ele>985.386719</ele>
   <time>2024-02-02T02:53:19Z</time>
  </trkpt>
  <trkpt lat="42.848157" lon="-4.340406">
   <ele>984.601563</ele>
   <time>2024-02-02T02:53:52Z</time>
  </trkpt>
  <trkpt lat="42.848175" lon="-4.340428">
   <ele>984.566406</ele>
   <time>2024-02-02T02:53:54Z</time>
  </trkpt>
  <trkpt lat="42.848318" lon="-4.340937">
   <ele>983.621094</ele>
   <time>2024-02-02T02:54:35Z</time>
  </trkpt>
  <trkpt lat="42.848067" lon="-4.340981">
   <ele>983.851563</ele>
   <time>2024-02-02T02:55:00Z</time>
  </trkpt>
  <trkpt lat="42.848007" lon="-4.340905">
   <ele>983.875000</ele>
   <time>2024-02-02T02:55:07Z</time>
  </trkpt>
  <trkpt lat="42.847565" lon="-4.341041">
   <ele>983.875000</ele>
   <time>2024-02-02T02:55:53Z</time>
  </trkpt>
  <trkpt lat="42.847150" lon="-4.341159">
   <ele>987.804688</ele>
   <time>2024-02-02T02:56:36Z</time>
  </trkpt>
  <trkpt lat="42.846766" lon="-4.341301">
   <ele>992.390625</ele>
   <time>2024-02-02T02:57:16Z</time>
  </trkpt>
  <trkpt lat="42.846712" lon="-4.341351">
   <ele>993.105469</ele>
   <time>2024-02-02T02:57:23Z</time>
  </trkpt>
  <trkpt lat="42.846656" lon="-4.341701">
   <ele>994.445313</ele>
   <time>2024-02-02T02:57:49Z</time>
  </trkpt>
  <trkpt lat="42.846711" lon="-4.342211">
   <ele>995.253906</ele>
   <time>2024-02-02T02:58:27Z</time>
  </trkpt>
  <trkpt lat="42.846673" lon="-4.342841">
   <ele>998.199219</ele>
   <time>2024-02-02T02:59:12Z</time>
  </trkpt>
  <trkpt lat="42.846657" lon="-4.343151">
   <ele>999.871094</ele>
   <time>2024-02-02T02:59:36Z</time>
  </trkpt>
  <trkpt lat="42.846666" lon="-4.343346">
   <ele>1000.566406</ele>
   <time>2024-02-02T02:59:50Z</time>
  </trkpt>
  <trkpt lat="42.846730" lon="-4.343912">
   <ele>1002.386719</ele>
   <time>2024-02-02T03:00:32Z</time>
  </trkpt>
  <trkpt lat="42.846770" lon="-4.344515">
   <ele>1004.226563</ele>
   <time>2024-02-02T03:01:16Z</time>
  </trkpt>
  <trkpt lat="42.846798" lon="-4.345147">
   <ele>1005.468750</ele>
   <time>2024-02-02T03:02:04Z</time>
  </trkpt>
  <trkpt lat="42.846736" lon="-4.345754">
   <ele>1005.179688</ele>
   <time>2024-02-02T03:02:49Z</time>
  </trkpt>
  <trkpt lat="42.846623" lon="-4.346189">
   <ele>1003.632813</ele>
   <time>2024-02-02T03:03:23Z</time>
  </trkpt>
  <trkpt lat="42.846513" lon="-4.346569">
   <ele>1002.847656</ele>
   <time>2024-02-02T03:03:52Z</time>
  </trkpt>
  <trkpt lat="42.846362" lon="-4.346983">
   <ele>1002.250000</ele>
   <time>2024-02-02T03:04:27Z</time>
  </trkpt>
  <trkpt lat="42.846326" lon="-4.347172">
   <ele>1002.054688</ele>
   <time>2024-02-02T03:04:40Z</time>
  </trkpt>
  <trkpt lat="42.846310" lon="-4.347316">
   <ele>1001.898438</ele>
   <time>2024-02-02T03:04:52Z</time>
  </trkpt>
  <trkpt lat="42.846292" lon="-4.347447">
   <ele>1001.820313</ele>
   <time>2024-02-02T03:05:02Z</time>
  </trkpt>
  <trkpt lat="42.846333" lon="-4.347994">
   <ele>1001.703125</ele>
   <time>2024-02-02T03:05:42Z</time>
  </trkpt>
  <trkpt lat="42.846372" lon="-4.348568">
   <ele>1002.101563</ele>
   <time>2024-02-02T03:06:25Z</time>
  </trkpt>
  <trkpt lat="42.846428" lon="-4.349190">
   <ele>1002.183594</ele>
   <time>2024-02-02T03:07:10Z</time>
  </trkpt>
  <trkpt lat="42.846489" lon="-4.349871">
   <ele>1001.585938</ele>
   <time>2024-02-02T03:08:01Z</time>
  </trkpt>
  <trkpt lat="42.846500" lon="-4.350175">
   <ele>1001.925781</ele>
   <time>2024-02-02T03:08:23Z</time>
  </trkpt>
  <trkpt lat="42.846542" lon="-4.350627">
   <ele>1002.335938</ele>
   <time>2024-02-02T03:08:57Z</time>
  </trkpt>
  <trkpt lat="42.846552" lon="-4.350830">
   <ele>1002.332031</ele>
   <time>2024-02-02T03:09:11Z</time>
  </trkpt>
  <trkpt lat="42.846564" lon="-4.351109">
   <ele>1002.203125</ele>
   <time>2024-02-02T03:09:33Z</time>
  </trkpt>
  <trkpt lat="42.846528" lon="-4.351719">
   <ele>1002.253906</ele>
   <time>2024-02-02T03:10:17Z</time>
  </trkpt>
  <trkpt lat="42.846545" lon="-4.352451">
   <ele>1004.281250</ele>
   <time>2024-02-02T03:11:12Z</time>
  </trkpt>
  <trkpt lat="42.846523" lon="-4.352792">
   <ele>1005.277344</ele>
   <time>2024-02-02T03:11:37Z</time>
  </trkpt>
  <trkpt lat="42.846477" lon="-4.353407">
   <ele>1005.902344</ele>
   <time>2024-02-02T03:12:22Z</time>
  </trkpt>
  <trkpt lat="42.846472" lon="-4.354028">
   <ele>1004.843750</ele>
   <time>2024-02-02T03:13:08Z</time>
  </trkpt>
  <trkpt lat="42.846433" lon="-4.354572">
   <ele>1002.453125</ele>
   <time>2024-02-02T03:13:48Z</time>
  </trkpt>
  <trkpt lat="42.846408" lon="-4.354691">
   <ele>1001.929688</ele>
   <time>2024-02-02T03:13:57Z</time>
  </trkpt>
  <trkpt lat="42.846269" lon="-4.354995">
   <ele>1001.062500</ele>
   <time>2024-02-02T03:14:23Z</time>
  </trkpt>
  <trkpt lat="42.846196" lon="-4.355117">
   <ele>1000.875000</ele>
   <time>2024-02-02T03:14:35Z</time>
  </trkpt>
  <trkpt lat="42.846136" lon="-4.355542">
   <ele>1000.269531</ele>
   <time>2024-02-02T03:15:07Z</time>
  </trkpt>
  <trkpt lat="42.846136" lon="-4.355576">
   <ele>1000.191406</ele>
   <time>2024-02-02T03:15:10Z</time>
  </trkpt>
  <trkpt lat="42.846225" lon="-4.356027">
   <ele>998.593750</ele>
   <time>2024-02-02T03:15:44Z</time>
  </trkpt>
  <trkpt lat="42.846289" lon="-4.356747">
   <ele>996.078125</ele>
   <time>2024-02-02T03:16:36Z</time>
  </trkpt>
  <trkpt lat="42.846256" lon="-4.357203">
   <ele>994.929688</ele>
   <time>2024-02-02T03:17:11Z</time>
  </trkpt>
  <trkpt lat="42.846233" lon="-4.357394">
   <ele>994.652344</ele>
   <time>2024-02-02T03:17:24Z</time>
  </trkpt>
  <trkpt lat="42.846165" lon="-4.357855">
   <ele>994.527344</ele>
   <time>2024-02-02T03:17:59Z</time>
  </trkpt>
  <trkpt lat="42.846162" lon="-4.357853">
   <ele>994.550781</ele>
   <time>2024-02-02T03:17:59Z</time>
  </trkpt>
  <trkpt lat="42.846169" lon="-4.357914">
   <ele>994.421875</ele>
   <time>2024-02-02T03:18:05Z</time>
  </trkpt>
  <trkpt lat="42.846131" lon="-4.358330">
   <ele>993.828125</ele>
   <time>2024-02-02T03:18:36Z</time>
  </trkpt>
  <trkpt lat="42.846110" lon="-4.358437">
   <ele>993.707031</ele>
   <time>2024-02-02T03:18:44Z</time>
  </trkpt>
  <trkpt lat="42.846030" lon="-4.358989">
   <ele>992.929688</ele>
   <time>2024-02-02T03:19:25Z</time>
  </trkpt>
  <trkpt lat="42.846044" lon="-4.359489">
   <ele>992.195313</ele>
   <time>2024-02-02T03:20:02Z</time>
  </trkpt>
  <trkpt lat="42.846104" lon="-4.359903">
   <ele>990.757813</ele>
   <time>2024-02-02T03:20:32Z</time>
  </trkpt>
  <trkpt lat="42.846206" lon="-4.360286">
   <ele>987.835938</ele>
   <time>2024-02-02T03:21:03Z</time>
  </trkpt>
  <trkpt lat="42.846287" lon="-4.360657">
   <ele>985.210938</ele>
   <time>2024-02-02T03:21:32Z</time>
  </trkpt>
  <trkpt lat="42.846266" lon="-4.361149">
   <ele>982.117188</ele>
   <time>2024-02-02T03:22:08Z</time>
  </trkpt>
  <trkpt lat="42.846156" lon="-4.361769">
   <ele>978.398438</ele>
   <time>2024-02-02T03:22:55Z</time>
  </trkpt>
  <trkpt lat="42.846091" lon="-4.362075">
   <ele>976.464844</ele>
   <time>2024-02-02T03:23:18Z</time>
  </trkpt>
  <trkpt lat="42.846012" lon="-4.362363">
   <ele>974.312500</ele>
   <time>2024-02-02T03:23:40Z</time>
  </trkpt>
  <trkpt lat="42.845992" lon="-4.362414">
   <ele>973.789063</ele>
   <time>2024-02-02T03:23:45Z</time>
  </trkpt>
  <trkpt lat="42.845889" lon="-4.362717">
   <ele>970.585938</ele>
   <time>2024-02-02T03:24:10Z</time>
  </trkpt>
  <trkpt lat="42.845758" lon="-4.362953">
   <ele>969.070313</ele>
   <time>2024-02-02T03:24:31Z</time>
  </trkpt>
  <trkpt lat="42.845631" lon="-4.363263">
   <ele>967.632813</ele>
   <time>2024-02-02T03:24:58Z</time>
  </trkpt>
  <trkpt lat="42.845608" lon="-4.363740">
   <ele>965.542969</ele>
   <time>2024-02-02T03:25:33Z</time>
  </trkpt>
  <trkpt lat="42.845667" lon="-4.364261">
   <ele>963.601563</ele>
   <time>2024-02-02T03:26:12Z</time>
  </trkpt>
  <trkpt lat="42.845688" lon="-4.364645">
   <ele>962.773438</ele>
   <time>2024-02-02T03:26:40Z</time>
  </trkpt>
  <trkpt lat="42.845722" lon="-4.364980">
   <ele>961.796875</ele>
   <time>2024-02-02T03:27:04Z</time>
  </trkpt>
  <trkpt lat="42.845777" lon="-4.365428">
   <ele>960.378906</ele>
   <time>2024-02-02T03:27:39Z</time>
  </trkpt>
  <trkpt lat="42.845691" lon="-4.365914">
   <ele>960.136719</ele>
   <time>2024-02-02T03:28:14Z</time>
  </trkpt>
  <trkpt lat="42.845513" lon="-4.366406">
   <ele>961.457031</ele>
   <time>2024-02-02T03:28:55Z</time>
  </trkpt>
  <trkpt lat="42.845377" lon="-4.366917">
   <ele>963.386719</ele>
   <time>2024-02-02T03:29:36Z</time>
  </trkpt>
  <trkpt lat="42.845199" lon="-4.367414">
   <ele>965.781250</ele>
   <time>2024-02-02T03:30:17Z</time>
  </trkpt>
  <trkpt lat="42.844950" lon="-4.367962">
   <ele>965.765625</ele>
   <time>2024-02-02T03:31:04Z</time>
  </trkpt>
  <trkpt lat="42.844838" lon="-4.368188">
   <ele>964.882813</ele>
   <time>2024-02-02T03:31:24Z</time>
  </trkpt>
  <trkpt lat="42.844745" lon="-4.368493">
   <ele>962.878906</ele>
   <time>2024-02-02T03:31:47Z</time>
  </trkpt>
  <trkpt lat="42.844728" lon="-4.368598">
   <ele>962.167969</ele>
   <time>2024-02-02T03:31:56Z</time>
  </trkpt>
  <trkpt lat="42.844703" lon="-4.368736">
   <ele>961.207031</ele>
   <time>2024-02-02T03:32:06Z</time>
  </trkpt>
  <trkpt lat="42.844728" lon="-4.369110">
   <ele>957.753906</ele>
   <time>2024-02-02T03:32:35Z</time>
  </trkpt>
  <trkpt lat="42.845099" lon="-4.369228">
   <ele>956.320313</ele>
   <time>2024-02-02T03:33:13Z</time>
  </trkpt>
  <trkpt lat="42.845265" lon="-4.369246">
   <ele>956.324219</ele>
   <time>2024-02-02T03:33:29Z</time>
  </trkpt>
  <trkpt lat="42.845373" lon="-4.369271">
   <ele>956.175781</ele>
   <time>2024-02-02T03:33:40Z</time>
  </trkpt>
  <trkpt lat="42.845418" lon="-4.369320">
   <ele>955.648438</ele>
   <time>2024-02-02T03:33:45Z</time>
  </trkpt>
  <trkpt lat="42.845468" lon="-4.369371">
   <ele>955.167969</ele>
   <time>2024-02-02T03:33:51Z</time>
  </trkpt>
  <trkpt lat="42.845569" lon="-4.369649">
   <ele>952.468750</ele>
   <time>2024-02-02T03:34:15Z</time>
  </trkpt>
  <trkpt lat="42.845552" lon="-4.369720">
   <ele>951.574219</ele>
   <time>2024-02-02T03:34:20Z</time>
  </trkpt>
  <trkpt lat="42.845556" lon="-4.369718">
   <ele>951.621094</ele>
   <time>2024-02-02T03:34:20Z</time>
  </trkpt>
  <trkpt lat="42.845754" lon="-4.369960">
   <ele>950.855469</ele>
   <time>2024-02-02T03:34:48Z</time>
  </trkpt>
  <trkpt lat="42.845774" lon="-4.369985">
   <ele>950.750000</ele>
   <time>2024-02-02T03:34:51Z</time>
  </trkpt>
  <trkpt lat="42.845898" lon="-4.370086">
   <ele>949.878906</ele>
   <time>2024-02-02T03:35:04Z</time>
  </trkpt>
  <trkpt lat="42.846160" lon="-4.370238">
   <ele>947.480469</ele>
   <time>2024-02-02T03:35:33Z</time>
  </trkpt>
  <trkpt lat="42.846420" lon="-4.370370">
   <ele>945.894531</ele>
   <time>2024-02-02T03:36:01Z</time>
  </trkpt>
  <trkpt lat="42.846443" lon="-4.370376">
   <ele>945.828125</ele>
   <time>2024-02-02T03:36:04Z</time>
  </trkpt>
  <trkpt lat="42.846660" lon="-4.370505">
   <ele>944.855469</ele>
   <time>2024-02-02T03:36:27Z</time>
  </trkpt>
  <trkpt lat="42.846704" lon="-4.370542">
   <ele>944.636719</ele>
   <time>2024-02-02T03:36:33Z</time>
  </trkpt>
  <trkpt lat="42.846785" lon="-4.370606">
   <ele>944.273438</ele>
   <time>2024-02-02T03:36:42Z</time>
  </trkpt>
  <trkpt lat="42.846818" lon="-4.370642">
   <ele>944.085938</ele>
   <time>2024-02-02T03:36:46Z</time>
  </trkpt>
  <trkpt lat="42.846874" lon="-4.370687">
   <ele>943.878906</ele>
   <time>2024-02-02T03:36:53Z</time>
  </trkpt>
  <trkpt lat="42.847078" lon="-4.370976">
   <ele>942.746094</ele>
   <time>2024-02-02T03:37:21Z</time>
  </trkpt>
  <trkpt lat="42.847348" lon="-4.371401">
   <ele>941.175781</ele>
   <time>2024-02-02T03:38:03Z</time>
  </trkpt>
  <trkpt lat="42.847698" lon="-4.371886">
   <ele>940.769531</ele>
   <time>2024-02-02T03:38:53Z</time>
  </trkpt>
  <trkpt lat="42.848021" lon="-4.372181">
   <ele>941.656250</ele>
   <time>2024-02-02T03:39:32Z</time>
  </trkpt>
  <trkpt lat="42.848417" lon="-4.372467">
   <ele>943.179688</ele>
   <time>2024-02-02T03:40:16Z</time>
  </trkpt>
  <trkpt lat="42.848748" lon="-4.372854">
   <ele>943.605469</ele>
   <time>2024-02-02T03:41:01Z</time>
  </trkpt>
  <trkpt lat="42.848959" lon="-4.373197">
   <ele>943.949219</ele>
   <time>2024-02-02T03:41:33Z</time>
  </trkpt>
  <trkpt lat="42.849244" lon="-4.373854">
   <ele>943.949219</ele>
   <time>2024-02-02T03:42:30Z</time>
  </trkpt>
  <trkpt lat="42.849314" lon="-4.373971">
   <ele>943.949219</ele>
   <time>2024-02-02T03:42:40Z</time>
  </trkpt>
  <trkpt lat="42.849514" lon="-4.374260">
   <ele>944.449219</ele>
   <time>2024-02-02T03:43:10Z</time>
  </trkpt>
  <trkpt lat="42.849683" lon="-4.374500">
   <ele>944.542969</ele>
   <time>2024-02-02T03:43:34Z</time>
  </trkpt>
  <trkpt lat="42.849719" lon="-4.374575">
   <ele>944.566406</ele>
   <time>2024-02-02T03:43:40Z</time>
  </trkpt>
  <trkpt lat="42.849784" lon="-4.374624">
   <ele>944.429688</ele>
   <time>2024-02-02T03:43:48Z</time>
  </trkpt>
  <trkpt lat="42.849919" lon="-4.374668">
   <ele>944.132813</ele>
   <time>2024-02-02T03:44:02Z</time>
  </trkpt>
  <trkpt lat="42.849943" lon="-4.374700">
   <ele>944.082031</ele>
   <time>2024-02-02T03:44:06Z</time>
  </trkpt>
  <trkpt lat="42.849959" lon="-4.374797">
   <ele>944.046875</ele>
   <time>2024-02-02T03:44:12Z</time>
  </trkpt>
  <trkpt lat="42.850000" lon="-4.375242">
   <ele>944.847656</ele>
   <time>2024-02-02T03:44:45Z</time>
  </trkpt>
  <trkpt lat="42.850039" lon="-4.375781">
   <ele>946.019531</ele>
   <time>2024-02-02T03:45:25Z</time>
  </trkpt>
  <trkpt lat="42.850070" lon="-4.375956">
   <ele>945.839844</ele>
   <time>2024-02-02T03:45:38Z</time>
  </trkpt>
  <trkpt lat="42.850084" lon="-4.376239">
   <ele>945.531250</ele>
   <time>2024-02-02T03:46:00Z</time>
  </trkpt>
  <trkpt lat="42.850154" lon="-4.376666">
   <ele>944.484375</ele>
   <time>2024-02-02T03:46:32Z</time>
  </trkpt>
  <trkpt lat="42.850191" lon="-4.377239">
   <ele>942.253906</ele>
   <time>2024-02-02T03:47:15Z</time>
  </trkpt>
  <trkpt lat="42.850259" lon="-4.377583">
   <ele>942.808594</ele>
   <time>2024-02-02T03:47:41Z</time>
  </trkpt>
  <trkpt lat="42.850288" lon="-4.377991">
   <ele>943.507813</ele>
   <time>2024-02-02T03:48:11Z</time>
  </trkpt>
  <trkpt lat="42.850277" lon="-4.377985">
   <ele>943.425781</ele>
   <time>2024-02-02T03:48:11Z</time>
  </trkpt>
  <trkpt lat="42.850303" lon="-4.378526">
   <ele>944.945313</ele>
   <time>2024-02-02T03:48:52Z</time>
  </trkpt>
  <trkpt lat="42.849818" lon="-4.378349">
   <ele>943.402344</ele>
   <time>2024-02-02T03:49:42Z</time>
  </trkpt>
  <trkpt lat="42.849494" lon="-4.378283">
   <ele>943.968750</ele>
   <time>2024-02-02T03:50:15Z</time>
  </trkpt>
  <trkpt lat="42.849476" lon="-4.378283">
   <ele>944.007813</ele>
   <time>2024-02-02T03:50:17Z</time>
  </trkpt>
  <trkpt lat="42.849153" lon="-4.378239">
   <ele>944.808594</ele>
   <time>2024-02-02T03:50:48Z</time>
  </trkpt>
  <trkpt lat="42.848883" lon="-4.378416">
   <ele>943.917969</ele>
   <time>2024-02-02T03:51:19Z</time>
  </trkpt>
  <trkpt lat="42.848560" lon="-4.378548">
   <ele>942.855469</ele>
   <time>2024-02-02T03:51:53Z</time>
  </trkpt>
  <trkpt lat="42.848255" lon="-4.378814">
   <ele>942.421875</ele>
   <time>2024-02-02T03:52:29Z</time>
  </trkpt>
  <trkpt lat="42.847841" lon="-4.379013">
   <ele>944.375000</ele>
   <time>2024-02-02T03:53:13Z</time>
  </trkpt>
  <trkpt lat="42.847608" lon="-4.379146">
   <ele>946.324219</ele>
   <time>2024-02-02T03:53:38Z</time>
  </trkpt>
  <trkpt lat="42.847410" lon="-4.379279">
   <ele>947.929688</ele>
   <time>2024-02-02T03:53:59Z</time>
  </trkpt>
  <trkpt lat="42.847680" lon="-4.379655">
   <ele>948.691406</ele>
   <time>2024-02-02T03:54:39Z</time>
  </trkpt>
  <trkpt lat="42.847806" lon="-4.379965">
   <ele>949.800781</ele>
   <time>2024-02-02T03:55:05Z</time>
  </trkpt>
  <trkpt lat="42.847913" lon="-4.380297">
   <ele>951.308594</ele>
   <time>2024-02-02T03:55:32Z</time>
  </trkpt>
  <trkpt lat="42.848021" lon="-4.380562">
   <ele>951.816406</ele>
   <time>2024-02-02T03:55:54Z</time>
  </trkpt>
  <trkpt lat="42.848021" lon="-4.380584">
   <ele>951.945313</ele>
   <time>2024-02-02T03:55:56Z</time>
  </trkpt>
  <trkpt lat="42.848093" lon="-4.380938">
   <ele>952.531250</ele>
   <time>2024-02-02T03:56:23Z</time>
  </trkpt>
  <trkpt lat="42.848183" lon="-4.381292">
   <ele>952.128906</ele>
   <time>2024-02-02T03:56:50Z</time>
  </trkpt>
  <trkpt lat="42.848237" lon="-4.381735">
   <ele>951.753906</ele>
   <time>2024-02-02T03:57:22Z</time>
  </trkpt>
  <trkpt lat="42.848362" lon="-4.382111">
   <ele>949.230469</ele>
   <time>2024-02-02T03:57:54Z</time>
  </trkpt>
  <trkpt lat="42.848380" lon="-4.382200">
   <ele>949.035156</ele>
   <time>2024-02-02T03:58:00Z</time>
  </trkpt>
  <trkpt lat="42.848416" lon="-4.382642">
   <ele>948.574219</ele>
   <time>2024-02-02T03:58:32Z</time>
  </trkpt>
  <trkpt lat="42.848380" lon="-4.383240">
   <ele>948.890625</ele>
   <time>2024-02-02T03:59:16Z</time>
  </trkpt>
  <trkpt lat="42.848488" lon="-4.383705">
   <ele>948.230469</ele>
   <time>2024-02-02T03:59:53Z</time>
  </trkpt>
  <trkpt lat="42.848488" lon="-4.383727">
   <ele>948.207031</ele>
   <time>2024-02-02T03:59:54Z</time>
  </trkpt>
  <trkpt lat="42.848506" lon="-4.384147">
   <ele>948.078125</ele>
   <time>2024-02-02T04:00:26Z</time>
  </trkpt>
  <trkpt lat="42.848506" lon="-4.384213">
   <ele>948.148438</ele>
   <time>2024-02-02T04:00:31Z</time>
  </trkpt>
  <trkpt lat="42.848542" lon="-4.384700">
   <ele>948.335938</ele>
   <time>2024-02-02T04:01:07Z</time>
  </trkpt>
  <trkpt lat="42.848542" lon="-4.384833">
   <ele>948.378906</ele>
   <time>2024-02-02T04:01:16Z</time>
  </trkpt>
  <trkpt lat="42.848578" lon="-4.385143">
   <ele>948.558594</ele>
   <time>2024-02-02T04:01:39Z</time>
  </trkpt>
  <trkpt lat="42.848578" lon="-4.385231">
   <ele>948.558594</ele>
   <time>2024-02-02T04:01:46Z</time>
  </trkpt>
  <trkpt lat="42.848614" lon="-4.385652">
   <ele>948.523438</ele>
   <time>2024-02-02T04:02:17Z</time>
  </trkpt>
  <trkpt lat="42.848614" lon="-4.385674">
   <ele>948.519531</ele>
   <time>2024-02-02T04:02:18Z</time>
  </trkpt>
  <trkpt lat="42.848650" lon="-4.386272">
   <ele>948.156250</ele>
   <time>2024-02-02T04:03:02Z</time>
  </trkpt>
  <trkpt lat="42.848650" lon="-4.386316">
   <ele>948.105469</ele>
   <time>2024-02-02T04:03:06Z</time>
  </trkpt>
  <trkpt lat="42.848704" lon="-4.386803">
   <ele>947.996094</ele>
   <time>2024-02-02T04:03:42Z</time>
  </trkpt>
  <trkpt lat="42.848704" lon="-4.386847">
   <ele>947.976563</ele>
   <time>2024-02-02T04:03:46Z</time>
  </trkpt>
  <trkpt lat="42.848794" lon="-4.387267">
   <ele>948.109375</ele>
   <time>2024-02-02T04:04:18Z</time>
  </trkpt>
  <trkpt lat="42.848794" lon="-4.387356">
   <ele>948.066406</ele>
   <time>2024-02-02T04:04:24Z</time>
  </trkpt>
  <trkpt lat="42.848812" lon="-4.387666">
   <ele>947.832031</ele>
   <time>2024-02-02T04:04:47Z</time>
  </trkpt>
  <trkpt lat="42.848830" lon="-4.387732">
   <ele>947.757813</ele>
   <time>2024-02-02T04:04:52Z</time>
  </trkpt>
  <trkpt lat="42.848740" lon="-4.388285">
   <ele>947.210938</ele>
   <time>2024-02-02T04:05:34Z</time>
  </trkpt>
  <trkpt lat="42.848632" lon="-4.388706">
   <ele>948.175781</ele>
   <time>2024-02-02T04:06:07Z</time>
  </trkpt>
  <trkpt lat="42.848542" lon="-4.389149">
   <ele>949.113281</ele>
   <time>2024-02-02T04:06:40Z</time>
  </trkpt>
  <trkpt lat="42.848434" lon="-4.389458">
   <ele>950.046875</ele>
   <time>2024-02-02T04:07:06Z</time>
  </trkpt>
  <trkpt lat="42.848416" lon="-4.389503">
   <ele>950.160156</ele>
   <time>2024-02-02T04:07:10Z</time>
  </trkpt>
  <trkpt lat="42.848327" lon="-4.389680">
   <ele>950.660156</ele>
   <time>2024-02-02T04:07:25Z</time>
  </trkpt>
  <trkpt lat="42.848327" lon="-4.389702">
   <ele>950.707031</ele>
   <time>2024-02-02T04:07:27Z</time>
  </trkpt>
  <trkpt lat="42.848201" lon="-4.389857">
   <ele>951.074219</ele>
   <time>2024-02-02T04:07:44Z</time>
  </trkpt>
  <trkpt lat="42.848183" lon="-4.389879">
   <ele>951.066406</ele>
   <time>2024-02-02T04:07:46Z</time>
  </trkpt>
  <trkpt lat="42.848075" lon="-4.390012">
   <ele>951.039063</ele>
   <time>2024-02-02T04:08:01Z</time>
  </trkpt>
  <trkpt lat="42.848075" lon="-4.390034">
   <ele>951.015625</ele>
   <time>2024-02-02T04:08:02Z</time>
  </trkpt>
  <trkpt lat="42.847985" lon="-4.390167">
   <ele>950.898438</ele>
   <time>2024-02-02T04:08:16Z</time>
  </trkpt>
  <trkpt lat="42.847967" lon="-4.390211">
   <ele>950.820313</ele>
   <time>2024-02-02T04:08:20Z</time>
  </trkpt>
  <trkpt lat="42.847895" lon="-4.390476">
   <ele>950.359375</ele>
   <time>2024-02-02T04:08:40Z</time>
  </trkpt>
  <trkpt lat="42.847859" lon="-4.390521">
   <ele>950.304688</ele>
   <time>2024-02-02T04:08:45Z</time>
  </trkpt>
  <trkpt lat="42.847698" lon="-4.390764">
   <ele>949.812500</ele>
   <time>2024-02-02T04:09:09Z</time>
  </trkpt>
  <trkpt lat="42.847680" lon="-4.390786">
   <ele>949.761719</ele>
   <time>2024-02-02T04:09:12Z</time>
  </trkpt>
  <trkpt lat="42.847572" lon="-4.390985">
   <ele>949.324219</ele>
   <time>2024-02-02T04:09:30Z</time>
  </trkpt>
  <trkpt lat="42.847410" lon="-4.391184">
   <ele>949.105469</ele>
   <time>2024-02-02T04:09:51Z</time>
  </trkpt>
  <trkpt lat="42.847267" lon="-4.391339">
   <ele>948.812500</ele>
   <time>2024-02-02T04:10:09Z</time>
  </trkpt>
  <trkpt lat="42.847249" lon="-4.391362">
   <ele>948.746094</ele>
   <time>2024-02-02T04:10:12Z</time>
  </trkpt>
  <trkpt lat="42.847087" lon="-4.391516">
   <ele>948.507813</ele>
   <time>2024-02-02T04:10:31Z</time>
  </trkpt>
  <trkpt lat="42.846907" lon="-4.391716">
   <ele>948.625000</ele>
   <time>2024-02-02T04:10:55Z</time>
  </trkpt>
  <trkpt lat="42.846799" lon="-4.392070">
   <ele>948.671875</ele>
   <time>2024-02-02T04:11:24Z</time>
  </trkpt>
  <trkpt lat="42.846638" lon="-4.392335">
   <ele>948.910156</ele>
   <time>2024-02-02T04:11:48Z</time>
  </trkpt>
  <trkpt lat="42.846404" lon="-4.392645">
   <ele>948.707031</ele>
   <time>2024-02-02T04:12:22Z</time>
  </trkpt>
  <trkpt lat="42.846296" lon="-4.393021">
   <ele>947.855469</ele>
   <time>2024-02-02T04:12:51Z</time>
  </trkpt>
  <trkpt lat="42.846081" lon="-4.393508">
   <ele>948.031250</ele>
   <time>2024-02-02T04:13:33Z</time>
  </trkpt>
  <trkpt lat="42.845919" lon="-4.393884">
   <ele>948.566406</ele>
   <time>2024-02-02T04:14:05Z</time>
  </trkpt>
  <trkpt lat="42.845829" lon="-4.394415">
   <ele>949.218750</ele>
   <time>2024-02-02T04:14:44Z</time>
  </trkpt>
  <trkpt lat="42.845829" lon="-4.394438">
   <ele>949.218750</ele>
   <time>2024-02-02T04:14:46Z</time>
  </trkpt>
  <trkpt lat="42.845739" lon="-4.394902">
   <ele>950.167969</ele>
   <time>2024-02-02T04:15:21Z</time>
  </trkpt>
  <trkpt lat="42.845650" lon="-4.395478">
   <ele>951.152344</ele>
   <time>2024-02-02T04:16:05Z</time>
  </trkpt>
  <trkpt lat="42.845650" lon="-4.396031">
   <ele>950.746094</ele>
   <time>2024-02-02T04:16:46Z</time>
  </trkpt>
  <trkpt lat="42.845650" lon="-4.396075">
   <ele>950.679688</ele>
   <time>2024-02-02T04:16:49Z</time>
  </trkpt>
  <trkpt lat="42.845650" lon="-4.396584">
   <ele>950.265625</ele>
   <time>2024-02-02T04:17:27Z</time>
  </trkpt>
  <trkpt lat="42.845650" lon="-4.396628">
   <ele>950.300781</ele>
   <time>2024-02-02T04:17:30Z</time>
  </trkpt>
  <trkpt lat="42.845632" lon="-4.397027">
   <ele>950.640625</ele>
   <time>2024-02-02T04:17:59Z</time>
  </trkpt>
  <trkpt lat="42.845632" lon="-4.397049">
   <ele>950.644531</ele>
   <time>2024-02-02T04:18:00Z</time>
  </trkpt>
  <trkpt lat="42.845667" lon="-4.397691">
   <ele>950.542969</ele>
   <time>2024-02-02T04:18:48Z</time>
  </trkpt>
  <trkpt lat="42.845686" lon="-4.397691">
   <ele>950.265625</ele>
   <time>2024-02-02T04:18:50Z</time>
  </trkpt>
  <trkpt lat="42.845721" lon="-4.398111">
   <ele>949.824219</ele>
   <time>2024-02-02T04:19:20Z</time>
  </trkpt>
  <trkpt lat="42.845739" lon="-4.398155">
   <ele>949.550781</ele>
   <time>2024-02-02T04:19:25Z</time>
  </trkpt>
  <trkpt lat="42.845865" lon="-4.398664">
   <ele>948.503906</ele>
   <time>2024-02-02T04:20:04Z</time>
  </trkpt>
  <trkpt lat="42.845865" lon="-4.398686">
   <ele>948.527344</ele>
   <time>2024-02-02T04:20:06Z</time>
  </trkpt>
  <trkpt lat="42.845919" lon="-4.399107">
   <ele>949.183594</ele>
   <time>2024-02-02T04:20:38Z</time>
  </trkpt>
  <trkpt lat="42.845937" lon="-4.399151">
   <ele>949.300781</ele>
   <time>2024-02-02T04:20:41Z</time>
  </trkpt>
  <trkpt lat="42.846009" lon="-4.399572">
   <ele>950.226563</ele>
   <time>2024-02-02T04:21:13Z</time>
  </trkpt>
  <trkpt lat="42.846009" lon="-4.399638">
   <ele>950.371094</ele>
   <time>2024-02-02T04:21:18Z</time>
  </trkpt>
  <trkpt lat="42.846027" lon="-4.399903">
   <ele>950.937500</ele>
   <time>2024-02-02T04:21:37Z</time>
  </trkpt>
  <trkpt lat="42.845865" lon="-4.400324">
   <ele>952.035156</ele>
   <time>2024-02-02T04:22:12Z</time>
  </trkpt>
  <trkpt lat="42.845739" lon="-4.400789">
   <ele>954.949219</ele>
   <time>2024-02-02T04:22:49Z</time>
  </trkpt>
  <trkpt lat="42.845721" lon="-4.400811">
   <ele>955.265625</ele>
   <time>2024-02-02T04:22:50Z</time>
  </trkpt>
  <trkpt lat="42.845614" lon="-4.401076">
   <ele>956.789063</ele>
   <time>2024-02-02T04:23:14Z</time>
  </trkpt>
  <trkpt lat="42.845596" lon="-4.401098">
   <ele>957.039063</ele>
   <time>2024-02-02T04:23:15Z</time>
  </trkpt>
  <trkpt lat="42.845614" lon="-4.401652">
   <ele>956.125000</ele>
   <time>2024-02-02T04:23:57Z</time>
  </trkpt>
  <trkpt lat="42.845614" lon="-4.402205">
   <ele>955.730469</ele>
   <time>2024-02-02T04:24:38Z</time>
  </trkpt>
  <trkpt lat="42.845434" lon="-4.402802">
   <ele>957.511719</ele>
   <time>2024-02-02T04:25:25Z</time>
  </trkpt>
  <trkpt lat="42.845308" lon="-4.403599">
   <ele>959.250000</ele>
   <time>2024-02-02T04:26:25Z</time>
  </trkpt>
  <trkpt lat="42.845308" lon="-4.403643">
   <ele>959.296875</ele>
   <time>2024-02-02T04:26:28Z</time>
  </trkpt>
  <trkpt lat="42.845308" lon="-4.404152">
   <ele>960.613281</ele>
   <time>2024-02-02T04:27:05Z</time>
  </trkpt>
  <trkpt lat="42.845290" lon="-4.404285">
   <ele>961.976563</ele>
   <time>2024-02-02T04:27:16Z</time>
  </trkpt>
  <trkpt lat="42.845272" lon="-4.404750">
   <ele>965.980469</ele>
   <time>2024-02-02T04:27:49Z</time>
  </trkpt>
  <trkpt lat="42.845272" lon="-4.404772">
   <ele>966.152344</ele>
   <time>2024-02-02T04:27:52Z</time>
  </trkpt>
  <trkpt lat="42.845344" lon="-4.405325">
   <ele>968.402344</ele>
   <time>2024-02-02T04:28:33Z</time>
  </trkpt>
  <trkpt lat="42.845380" lon="-4.405834">
   <ele>969.843750</ele>
   <time>2024-02-02T04:29:10Z</time>
  </trkpt>
  <trkpt lat="42.845470" lon="-4.406432">
   <ele>966.433594</ele>
   <time>2024-02-02T04:29:56Z</time>
  </trkpt>
  <trkpt lat="42.845488" lon="-4.406454">
   <ele>965.734375</ele>
   <time>2024-02-02T04:29:57Z</time>
  </trkpt>
  <trkpt lat="42.845542" lon="-4.406963">
   <ele>963.613281</ele>
   <time>2024-02-02T04:30:35Z</time>
  </trkpt>
  <trkpt lat="42.845632" lon="-4.407494">
   <ele>960.160156</ele>
   <time>2024-02-02T04:31:16Z</time>
  </trkpt>
  <trkpt lat="42.845632" lon="-4.407583">
   <ele>960.210938</ele>
   <time>2024-02-02T04:31:23Z</time>
  </trkpt>
  <trkpt lat="42.845703" lon="-4.407892">
   <ele>958.179688</ele>
   <time>2024-02-02T04:31:46Z</time>
  </trkpt>
  <trkpt lat="42.845703" lon="-4.407915">
   <ele>958.203125</ele>
   <time>2024-02-02T04:31:48Z</time>
  </trkpt>
  <trkpt lat="42.845757" lon="-4.408180">
   <ele>956.847656</ele>
   <time>2024-02-02T04:32:09Z</time>
  </trkpt>
  <trkpt lat="42.845775" lon="-4.408202">
   <ele>956.371094</ele>
   <time>2024-02-02T04:32:10Z</time>
  </trkpt>
  <trkpt lat="42.845883" lon="-4.408446">
   <ele>955.539063</ele>
   <time>2024-02-02T04:32:32Z</time>
  </trkpt>
  <trkpt lat="42.846009" lon="-4.408667">
   <ele>956.160156</ele>
   <time>2024-02-02T04:32:52Z</time>
  </trkpt>
  <trkpt lat="42.846009" lon="-4.408689">
   <ele>956.250000</ele>
   <time>2024-02-02T04:32:54Z</time>
  </trkpt>
  <trkpt lat="42.846171" lon="-4.408822">
   <ele>955.941406</ele>
   <time>2024-02-02T04:33:12Z</time>
  </trkpt>
  <trkpt lat="42.846207" lon="-4.408844">
   <ele>955.804688</ele>
   <time>2024-02-02T04:33:17Z</time>
  </trkpt>
  <trkpt lat="42.846386" lon="-4.408955">
   <ele>954.945313</ele>
   <time>2024-02-02T04:33:36Z</time>
  </trkpt>
  <trkpt lat="42.846404" lon="-4.408977">
   <ele>954.851563</ele>
   <time>2024-02-02T04:33:39Z</time>
  </trkpt>
  <trkpt lat="42.846512" lon="-4.409110">
   <ele>954.347656</ele>
   <time>2024-02-02T04:33:54Z</time>
  </trkpt>
  <trkpt lat="42.846602" lon="-4.409729">
   <ele>954.992188</ele>
   <time>2024-02-02T04:34:40Z</time>
  </trkpt>
  <trkpt lat="42.846620" lon="-4.410150">
   <ele>955.460938</ele>
   <time>2024-02-02T04:35:11Z</time>
  </trkpt>
  <trkpt lat="42.846620" lon="-4.410172">
   <ele>955.484375</ele>
   <time>2024-02-02T04:35:12Z</time>
  </trkpt>
  <trkpt lat="42.846674" lon="-4.410548">
   <ele>955.726563</ele>
   <time>2024-02-02T04:35:40Z</time>
  </trkpt>
  <trkpt lat="42.846853" lon="-4.411123">
   <ele>956.234375</ele>
   <time>2024-02-02T04:36:27Z</time>
  </trkpt>
  <trkpt lat="42.847033" lon="-4.411433">
   <ele>955.957031</ele>
   <time>2024-02-02T04:36:56Z</time>
  </trkpt>
  <trkpt lat="42.847141" lon="-4.411699">
   <ele>956.203125</ele>
   <time>2024-02-02T04:37:19Z</time>
  </trkpt>
  <trkpt lat="42.847177" lon="-4.411942">
   <ele>956.492188</ele>
   <time>2024-02-02T04:37:37Z</time>
  </trkpt>
  <trkpt lat="42.847213" lon="-4.412163">
   <ele>956.777344</ele>
   <time>2024-02-02T04:37:53Z</time>
  </trkpt>
  <trkpt lat="42.847320" lon="-4.412318">
   <ele>956.671875</ele>
   <time>2024-02-02T04:38:09Z</time>
  </trkpt>
  <trkpt lat="42.847338" lon="-4.412363">
   <ele>956.789063</ele>
   <time>2024-02-02T04:38:13Z</time>
  </trkpt>
  <trkpt lat="42.847572" lon="-4.412628">
   <ele>957.183594</ele>
   <time>2024-02-02T04:38:42Z</time>
  </trkpt>
  <trkpt lat="42.847806" lon="-4.412783">
   <ele>957.718750</ele>
   <time>2024-02-02T04:39:09Z</time>
  </trkpt>
  <trkpt lat="42.847823" lon="-4.412827">
   <ele>957.882813</ele>
   <time>2024-02-02T04:39:13Z</time>
  </trkpt>
  <trkpt lat="42.847985" lon="-4.412982">
   <ele>958.480469</ele>
   <time>2024-02-02T04:39:33Z</time>
  </trkpt>
  <trkpt lat="42.848003" lon="-4.412982">
   <ele>958.492188</ele>
   <time>2024-02-02T04:39:35Z</time>
  </trkpt>
  <trkpt lat="42.848219" lon="-4.413137">
   <ele>958.867188</ele>
   <time>2024-02-02T04:39:58Z</time>
  </trkpt>
  <trkpt lat="42.848129" lon="-4.413270">
   <ele>959.089844</ele>
   <time>2024-02-02T04:40:11Z</time>
  </trkpt>
  <trkpt lat="42.848237" lon="-4.413469">
   <ele>959.140625</ele>
   <time>2024-02-02T04:40:30Z</time>
  </trkpt>
  <trkpt lat="42.848362" lon="-4.413801">
   <ele>958.828125</ele>
   <time>2024-02-02T04:40:58Z</time>
  </trkpt>
  <trkpt lat="42.848542" lon="-4.414266">
   <ele>959.292969</ele>
   <time>2024-02-02T04:41:37Z</time>
  </trkpt>
  <trkpt lat="42.848650" lon="-4.414553">
   <ele>959.828125</ele>
   <time>2024-02-02T04:41:59Z</time>
  </trkpt>
  <trkpt lat="42.848668" lon="-4.414598">
   <ele>959.953125</ele>
   <time>2024-02-02T04:42:04Z</time>
  </trkpt>
  <trkpt lat="42.848794" lon="-4.414907">
   <ele>960.804688</ele>
   <time>2024-02-02T04:42:30Z</time>
  </trkpt>
  <trkpt lat="42.848883" lon="-4.415262">
   <ele>961.441406</ele>
   <time>2024-02-02T04:42:57Z</time>
  </trkpt>
  <trkpt lat="42.848883" lon="-4.415284">
   <ele>961.488281</ele>
   <time>2024-02-02T04:42:59Z</time>
  </trkpt>
  <trkpt lat="42.848973" lon="-4.415593">
   <ele>961.535156</ele>
   <time>2024-02-02T04:43:24Z</time>
  </trkpt>
  <trkpt lat="42.848973" lon="-4.415638">
   <ele>961.605469</ele>
   <time>2024-02-02T04:43:27Z</time>
  </trkpt>
  <trkpt lat="42.849063" lon="-4.416014">
   <ele>960.554688</ele>
   <time>2024-02-02T04:43:56Z</time>
  </trkpt>
  <trkpt lat="42.849117" lon="-4.416390">
   <ele>959.152344</ele>
   <time>2024-02-02T04:44:23Z</time>
  </trkpt>
  <trkpt lat="42.849009" lon="-4.416501">
   <ele>961.117188</ele>
   <time>2024-02-02T04:44:38Z</time>
  </trkpt>
  <trkpt lat="42.848973" lon="-4.416523">
   <ele>961.804688</ele>
   <time>2024-02-02T04:44:42Z</time>
  </trkpt>
  <trkpt lat="42.848848" lon="-4.416700">
   <ele>964.144531</ele>
   <time>2024-02-02T04:45:00Z</time>
  </trkpt>
  <trkpt lat="42.848866" lon="-4.416943">
   <ele>963.503906</ele>
   <time>2024-02-02T04:45:17Z</time>
  </trkpt>
  <trkpt lat="42.848883" lon="-4.416943">
   <ele>963.128906</ele>
   <time>2024-02-02T04:45:20Z</time>
  </trkpt>
  <trkpt lat="42.849063" lon="-4.417519">
   <ele>959.218750</ele>
   <time>2024-02-02T04:46:06Z</time>
  </trkpt>
  <trkpt lat="42.849171" lon="-4.417917">
   <ele>957.722656</ele>
   <time>2024-02-02T04:46:36Z</time>
  </trkpt>
  <trkpt lat="42.849171" lon="-4.417939">
   <ele>957.746094</ele>
   <time>2024-02-02T04:46:39Z</time>
  </trkpt>
  <trkpt lat="42.849261" lon="-4.418315">
   <ele>958.351563</ele>
   <time>2024-02-02T04:47:08Z</time>
  </trkpt>
  <trkpt lat="42.849261" lon="-4.418338">
   <ele>958.398438</ele>
   <time>2024-02-02T04:47:10Z</time>
  </trkpt>
  <trkpt lat="42.849404" lon="-4.418824">
   <ele>959.347656</ele>
   <time>2024-02-02T04:47:48Z</time>
  </trkpt>
  <trkpt lat="42.849404" lon="-4.418846">
   <ele>959.378906</ele>
   <time>2024-02-02T04:47:50Z</time>
  </trkpt>
  <trkpt lat="42.849530" lon="-4.419400">
   <ele>959.960938</ele>
   <time>2024-02-02T04:48:31Z</time>
  </trkpt>
  <trkpt lat="42.849620" lon="-4.419776">
   <ele>960.539063</ele>
   <time>2024-02-02T04:49:02Z</time>
  </trkpt>
  <trkpt lat="42.849728" lon="-4.420130">
   <ele>961.023438</ele>
   <time>2024-02-02T04:49:30Z</time>
  </trkpt>
  <trkpt lat="42.849854" lon="-4.420617">
   <ele>961.988281</ele>
   <time>2024-02-02T04:50:08Z</time>
  </trkpt>
  <trkpt lat="42.849944" lon="-4.421015">
   <ele>961.781250</ele>
   <time>2024-02-02T04:50:38Z</time>
  </trkpt>
  <trkpt lat="42.849980" lon="-4.421148">
   <ele>961.648438</ele>
   <time>2024-02-02T04:50:48Z</time>
  </trkpt>
  <trkpt lat="42.849998" lon="-4.421192">
   <ele>961.613281</ele>
   <time>2024-02-02T04:50:51Z</time>
  </trkpt>
  <trkpt lat="42.850159" lon="-4.421657">
   <ele>960.468750</ele>
   <time>2024-02-02T04:51:29Z</time>
  </trkpt>
  <trkpt lat="42.850177" lon="-4.421679">
   <ele>960.406250</ele>
   <time>2024-02-02T04:51:32Z</time>
  </trkpt>
  <trkpt lat="42.850393" lon="-4.422299">
   <ele>960.097656</ele>
   <time>2024-02-02T04:52:23Z</time>
  </trkpt>
  <trkpt lat="42.850465" lon="-4.422609">
   <ele>960.445313</ele>
   <time>2024-02-02T04:52:46Z</time>
  </trkpt>
  <trkpt lat="42.850572" lon="-4.423051">
   <ele>961.117188</ele>
   <time>2024-02-02T04:53:21Z</time>
  </trkpt>
  <trkpt lat="42.850698" lon="-4.423649">
   <ele>961.316406</ele>
   <time>2024-02-02T04:54:07Z</time>
  </trkpt>
  <trkpt lat="42.850824" lon="-4.424003">
   <ele>961.125000</ele>
   <time>2024-02-02T04:54:36Z</time>
  </trkpt>
  <trkpt lat="42.850932" lon="-4.424556">
   <ele>962.195313</ele>
   <time>2024-02-02T04:55:18Z</time>
  </trkpt>
  <trkpt lat="42.851040" lon="-4.425286">
   <ele>962.621094</ele>
   <time>2024-02-02T04:56:13Z</time>
  </trkpt>
  <trkpt lat="42.851040" lon="-4.425353">
   <ele>962.621094</ele>
   <time>2024-02-02T04:56:17Z</time>
  </trkpt>
  <trkpt lat="42.851183" lon="-4.425751">
   <ele>962.839844</ele>
   <time>2024-02-02T04:56:50Z</time>
  </trkpt>
  <trkpt lat="42.851201" lon="-4.425751">
   <ele>962.820313</ele>
   <time>2024-02-02T04:56:51Z</time>
  </trkpt>
  <trkpt lat="42.851345" lon="-4.426105">
   <ele>963.792969</ele>
   <time>2024-02-02T04:57:22Z</time>
  </trkpt>
  <trkpt lat="42.851345" lon="-4.426127">
   <ele>963.859375</ele>
   <time>2024-02-02T04:57:23Z</time>
  </trkpt>
  <trkpt lat="42.851579" lon="-4.426459">
   <ele>964.937500</ele>
   <time>2024-02-02T04:57:57Z</time>
  </trkpt>
  <trkpt lat="42.851776" lon="-4.426636">
   <ele>964.039063</ele>
   <time>2024-02-02T04:58:20Z</time>
  </trkpt>
  <trkpt lat="42.851794" lon="-4.426680">
   <ele>963.886719</ele>
   <time>2024-02-02T04:58:25Z</time>
  </trkpt>
  <trkpt lat="42.851866" lon="-4.426791">
   <ele>963.359375</ele>
   <time>2024-02-02T04:58:36Z</time>
  </trkpt>
  <trkpt lat="42.851884" lon="-4.426858">
   <ele>963.226563</ele>
   <time>2024-02-02T04:58:41Z</time>
  </trkpt>
  <trkpt lat="42.852064" lon="-4.427256">
   <ele>962.433594</ele>
   <time>2024-02-02T04:59:14Z</time>
  </trkpt>
  <trkpt lat="42.852279" lon="-4.427676">
   <ele>961.914063</ele>
   <time>2024-02-02T04:59:52Z</time>
  </trkpt>
  <trkpt lat="42.852387" lon="-4.428119">
   <ele>962.042969</ele>
   <time>2024-02-02T05:00:27Z</time>
  </trkpt>
  <trkpt lat="42.852387" lon="-4.428141">
   <ele>962.066406</ele>
   <time>2024-02-02T05:00:29Z</time>
  </trkpt>
  <trkpt lat="42.852513" lon="-4.428539">
   <ele>962.816406</ele>
   <time>2024-02-02T05:01:01Z</time>
  </trkpt>
  <trkpt lat="42.852639" lon="-4.428893">
   <ele>963.816406</ele>
   <time>2024-02-02T05:01:29Z</time>
  </trkpt>
  <trkpt lat="42.852818" lon="-4.429314">
   <ele>963.304688</ele>
   <time>2024-02-02T05:02:05Z</time>
  </trkpt>
  <trkpt lat="42.853016" lon="-4.429889">
   <ele>962.125000</ele>
   <time>2024-02-02T05:02:51Z</time>
  </trkpt>
  <trkpt lat="42.853088" lon="-4.430111">
   <ele>962.609375</ele>
   <time>2024-02-02T05:03:10Z</time>
  </trkpt>
  <trkpt lat="42.853106" lon="-4.430487">
   <ele>963.460938</ele>
   <time>2024-02-02T05:03:38Z</time>
  </trkpt>
  <trkpt lat="42.853106" lon="-4.430509">
   <ele>963.515625</ele>
   <time>2024-02-02T05:03:38Z</time>
  </trkpt>
  <trkpt lat="42.853034" lon="-4.430797">
   <ele>963.363281</ele>
   <time>2024-02-02T05:04:01Z</time>
  </trkpt>
  <trkpt lat="42.853016" lon="-4.430863">
   <ele>963.203125</ele>
   <time>2024-02-02T05:04:07Z</time>
  </trkpt>
  <trkpt lat="42.852962" lon="-4.431306">
   <ele>962.378906</ele>
   <time>2024-02-02T05:04:39Z</time>
  </trkpt>
  <trkpt lat="42.852962" lon="-4.431615">
   <ele>961.917969</ele>
   <time>2024-02-02T05:05:03Z</time>
  </trkpt>
  <trkpt lat="42.852962" lon="-4.431638">
   <ele>961.902344</ele>
   <time>2024-02-02T05:05:04Z</time>
  </trkpt>
  <trkpt lat="42.852908" lon="-4.432058">
   <ele>961.285156</ele>
   <time>2024-02-02T05:05:36Z</time>
  </trkpt>
  <trkpt lat="42.852872" lon="-4.432501">
   <ele>961.484375</ele>
   <time>2024-02-02T05:06:08Z</time>
  </trkpt>
  <trkpt lat="42.852818" lon="-4.432877">
   <ele>962.195313</ele>
   <time>2024-02-02T05:06:36Z</time>
  </trkpt>
  <trkpt lat="42.852818" lon="-4.433297">
   <ele>962.687500</ele>
   <time>2024-02-02T05:07:07Z</time>
  </trkpt>
  <trkpt lat="42.852872" lon="-4.433873">
   <ele>962.230469</ele>
   <time>2024-02-02T05:07:50Z</time>
  </trkpt>
  <trkpt lat="42.852872" lon="-4.434050">
   <ele>962.070313</ele>
   <time>2024-02-02T05:08:03Z</time>
  </trkpt>
  <trkpt lat="42.852890" lon="-4.434360">
   <ele>961.792969</ele>
   <time>2024-02-02T05:08:25Z</time>
  </trkpt>
  <trkpt lat="42.852890" lon="-4.434404">
   <ele>961.761719</ele>
   <time>2024-02-02T05:08:28Z</time>
  </trkpt>
  <trkpt lat="42.852926" lon="-4.434780">
   <ele>961.472656</ele>
   <time>2024-02-02T05:08:57Z</time>
  </trkpt>
  <trkpt lat="42.852926" lon="-4.434846">
   <ele>961.488281</ele>
   <time>2024-02-02T05:09:02Z</time>
  </trkpt>
  <trkpt lat="42.852962" lon="-4.435156">
   <ele>961.585938</ele>
   <time>2024-02-02T05:09:25Z</time>
  </trkpt>
  <trkpt lat="42.852962" lon="-4.435178">
   <ele>961.601563</ele>
   <time>2024-02-02T05:09:27Z</time>
  </trkpt>
  <trkpt lat="42.853052" lon="-4.435555">
   <ele>961.632813</ele>
   <time>2024-02-02T05:09:56Z</time>
  </trkpt>
  <trkpt lat="42.853088" lon="-4.435953">
   <ele>961.867188</ele>
   <time>2024-02-02T05:10:25Z</time>
  </trkpt>
  <trkpt lat="42.852926" lon="-4.436373">
   <ele>962.324219</ele>
   <time>2024-02-02T05:10:59Z</time>
  </trkpt>
  <trkpt lat="42.852836" lon="-4.436838">
   <ele>963.128906</ele>
   <time>2024-02-02T05:11:36Z</time>
  </trkpt>
  <trkpt lat="42.852728" lon="-4.437436">
   <ele>964.257813</ele>
   <time>2024-02-02T05:12:21Z</time>
  </trkpt>
  <trkpt lat="42.852639" lon="-4.437900">
   <ele>965.039063</ele>
   <time>2024-02-02T05:12:56Z</time>
  </trkpt>
  <trkpt lat="42.852531" lon="-4.438232">
   <ele>965.878906</ele>
   <time>2024-02-02T05:13:23Z</time>
  </trkpt>
  <trkpt lat="42.852531" lon="-4.438254">
   <ele>965.902344</ele>
   <time>2024-02-02T05:13:24Z</time>
  </trkpt>
  <trkpt lat="42.852441" lon="-4.438808">
   <ele>967.132813</ele>
   <time>2024-02-02T05:14:06Z</time>
  </trkpt>
  <trkpt lat="42.852441" lon="-4.438830">
   <ele>967.164063</ele>
   <time>2024-02-02T05:14:08Z</time>
  </trkpt>
  <trkpt lat="42.852333" lon="-4.439140">
   <ele>968.871094</ele>
   <time>2024-02-02T05:14:33Z</time>
  </trkpt>
  <trkpt lat="42.852333" lon="-4.439184">
   <ele>969.015625</ele>
   <time>2024-02-02T05:14:36Z</time>
  </trkpt>
  <trkpt lat="42.852261" lon="-4.439516">
   <ele>970.699219</ele>
   <time>2024-02-02T05:15:02Z</time>
  </trkpt>
  <trkpt lat="42.852153" lon="-4.439671">
   <ele>972.562500</ele>
   <time>2024-02-02T05:15:18Z</time>
  </trkpt>
  <trkpt lat="42.852207" lon="-4.439892">
   <ele>972.910156</ele>
   <time>2024-02-02T05:15:35Z</time>
  </trkpt>
  <trkpt lat="42.852243" lon="-4.440246">
   <ele>974.050781</ele>
   <time>2024-02-02T05:16:00Z</time>
  </trkpt>
  <trkpt lat="42.852603" lon="-4.440622">
   <ele>972.101563</ele>
   <time>2024-02-02T05:16:45Z</time>
  </trkpt>
  <trkpt lat="42.852782" lon="-4.440976">
   <ele>973.105469</ele>
   <time>2024-02-02T05:17:17Z</time>
  </trkpt>
  <trkpt lat="42.852836" lon="-4.441065">
   <ele>973.050781</ele>
   <time>2024-02-02T05:17:26Z</time>
  </trkpt>
  <trkpt lat="42.852926" lon="-4.441397">
   <ele>973.507813</ele>
   <time>2024-02-02T05:17:52Z</time>
  </trkpt>
  <trkpt lat="42.852926" lon="-4.441441">
   <ele>973.722656</ele>
   <time>2024-02-02T05:17:55Z</time>
  </trkpt>
  <trkpt lat="42.853016" lon="-4.441729">
   <ele>974.667969</ele>
   <time>2024-02-02T05:18:19Z</time>
  </trkpt>
  <trkpt lat="42.853196" lon="-4.442016">
   <ele>973.363281</ele>
   <time>2024-02-02T05:18:46Z</time>
  </trkpt>
  <trkpt lat="42.853214" lon="-4.442039">
   <ele>973.085938</ele>
   <time>2024-02-02T05:18:49Z</time>
  </trkpt>
  <trkpt lat="42.853375" lon="-4.442370">
   <ele>971.761719</ele>
   <time>2024-02-02T05:19:18Z</time>
  </trkpt>
  <trkpt lat="42.853393" lon="-4.442769">
   <ele>973.839844</ele>
   <time>2024-02-02T05:19:48Z</time>
  </trkpt>
  <trkpt lat="42.853393" lon="-4.442835">
   <ele>974.187500</ele>
   <time>2024-02-02T05:19:53Z</time>
  </trkpt>
  <trkpt lat="42.853339" lon="-4.443145">
   <ele>976.808594</ele>
   <time>2024-02-02T05:20:15Z</time>
  </trkpt>
  <trkpt lat="42.853339" lon="-4.443322">
   <ele>977.003906</ele>
   <time>2024-02-02T05:20:28Z</time>
  </trkpt>
  <trkpt lat="42.853285" lon="-4.443588">
   <ele>979.484375</ele>
   <time>2024-02-02T05:20:48Z</time>
  </trkpt>
  <trkpt lat="42.853285" lon="-4.443610">
   <ele>979.515625</ele>
   <time>2024-02-02T05:20:50Z</time>
  </trkpt>
  <trkpt lat="42.853285" lon="-4.443964">
   <ele>980.332031</ele>
   <time>2024-02-02T05:21:17Z</time>
  </trkpt>
  <trkpt lat="42.853321" lon="-4.444362">
   <ele>978.230469</ele>
   <time>2024-02-02T05:21:47Z</time>
  </trkpt>
  <trkpt lat="42.853322" lon="-4.444805">
   <ele>977.511719</ele>
   <time>2024-02-02T05:22:19Z</time>
  </trkpt>
  <trkpt lat="42.853339" lon="-4.445181">
   <ele>978.621094</ele>
   <time>2024-02-02T05:22:47Z</time>
  </trkpt>
  <trkpt lat="42.853537" lon="-4.445535">
   <ele>977.093750</ele>
   <time>2024-02-02T05:23:20Z</time>
  </trkpt>
  <trkpt lat="42.853825" lon="-4.445779">
   <ele>973.250000</ele>
   <time>2024-02-02T05:23:54Z</time>
  </trkpt>
  <trkpt lat="42.854112" lon="-4.446000">
   <ele>967.437500</ele>
   <time>2024-02-02T05:24:27Z</time>
  </trkpt>
  <trkpt lat="42.854310" lon="-4.446155">
   <ele>965.500000</ele>
   <time>2024-02-02T05:24:49Z</time>
  </trkpt>
  <trkpt lat="42.854346" lon="-4.446199">
   <ele>965.351563</ele>
   <time>2024-02-02T05:24:55Z</time>
  </trkpt>
  <trkpt lat="42.854507" lon="-4.446575">
   <ele>965.324219</ele>
   <time>2024-02-02T05:25:27Z</time>
  </trkpt>
  <trkpt lat="42.854543" lon="-4.446642">
   <ele>965.636719</ele>
   <time>2024-02-02T05:25:33Z</time>
  </trkpt>
  <trkpt lat="42.854777" lon="-4.447084">
   <ele>967.234375</ele>
   <time>2024-02-02T05:26:12Z</time>
  </trkpt>
  <trkpt lat="42.854956" lon="-4.447549">
   <ele>968.035156</ele>
   <time>2024-02-02T05:26:51Z</time>
  </trkpt>
  <trkpt lat="42.855154" lon="-4.448080">
   <ele>968.703125</ele>
   <time>2024-02-02T05:27:36Z</time>
  </trkpt>
  <trkpt lat="42.855190" lon="-4.448191">
   <ele>968.734375</ele>
   <time>2024-02-02T05:27:44Z</time>
  </trkpt>
  <trkpt lat="42.855334" lon="-4.448589">
   <ele>968.800781</ele>
   <time>2024-02-02T05:28:16Z</time>
  </trkpt>
  <trkpt lat="42.855459" lon="-4.449142">
   <ele>969.351563</ele>
   <time>2024-02-02T05:29:00Z</time>
  </trkpt>
  <trkpt lat="42.855603" lon="-4.449607">
   <ele>970.476563</ele>
   <time>2024-02-02T05:29:37Z</time>
  </trkpt>
  <trkpt lat="42.855711" lon="-4.450050">
   <ele>971.808594</ele>
   <time>2024-02-02T05:30:10Z</time>
  </trkpt>
  <trkpt lat="42.855873" lon="-4.450514">
   <ele>973.566406</ele>
   <time>2024-02-02T05:30:49Z</time>
  </trkpt>
  <trkpt lat="42.855765" lon="-4.450891">
   <ele>973.300781</ele>
   <time>2024-02-02T05:31:19Z</time>
  </trkpt>
  <trkpt lat="42.855765" lon="-4.450957">
   <ele>973.113281</ele>
   <time>2024-02-02T05:31:23Z</time>
  </trkpt>
  <trkpt lat="42.855783" lon="-4.451466">
   <ele>971.855469</ele>
   <time>2024-02-02T05:32:01Z</time>
  </trkpt>
  <trkpt lat="42.855783" lon="-4.451532">
   <ele>971.722656</ele>
   <time>2024-02-02T05:32:05Z</time>
  </trkpt>
  <trkpt lat="42.855765" lon="-4.452041">
   <ele>970.707031</ele>
   <time>2024-02-02T05:32:43Z</time>
  </trkpt>
  <trkpt lat="42.855729" lon="-4.452484">
   <ele>970.488281</ele>
   <time>2024-02-02T05:33:15Z</time>
  </trkpt>
  <trkpt lat="42.855693" lon="-4.452882">
   <ele>971.464844</ele>
   <time>2024-02-02T05:33:46Z</time>
  </trkpt>
  <trkpt lat="42.855657" lon="-4.452971">
   <ele>971.660156</ele>
   <time>2024-02-02T05:33:53Z</time>
  </trkpt>
  <trkpt lat="42.855657" lon="-4.453347">
   <ele>972.078125</ele>
   <time>2024-02-02T05:34:21Z</time>
  </trkpt>
  <trkpt lat="42.855657" lon="-4.453435">
   <ele>972.140625</ele>
   <time>2024-02-02T05:34:27Z</time>
  </trkpt>
  <trkpt lat="42.855657" lon="-4.453967">
   <ele>972.511719</ele>
   <time>2024-02-02T05:35:06Z</time>
  </trkpt>
  <trkpt lat="42.855657" lon="-4.453989">
   <ele>972.503906</ele>
   <time>2024-02-02T05:35:08Z</time>
  </trkpt>
  <trkpt lat="42.855603" lon="-4.454343">
   <ele>972.222656</ele>
   <time>2024-02-02T05:35:34Z</time>
  </trkpt>
  <trkpt lat="42.855585" lon="-4.454453">
   <ele>972.082031</ele>
   <time>2024-02-02T05:35:43Z</time>
  </trkpt>
  <trkpt lat="42.855531" lon="-4.455051">
   <ele>972.011719</ele>
   <time>2024-02-02T05:36:26Z</time>
  </trkpt>
  <trkpt lat="42.855531" lon="-4.455560">
   <ele>972.312500</ele>
   <time>2024-02-02T05:37:04Z</time>
  </trkpt>
  <trkpt lat="42.855495" lon="-4.456135">
   <ele>974.187500</ele>
   <time>2024-02-02T05:37:46Z</time>
  </trkpt>
  <trkpt lat="42.855495" lon="-4.456578">
   <ele>976.097656</ele>
   <time>2024-02-02T05:38:20Z</time>
  </trkpt>
  <trkpt lat="42.855531" lon="-4.456666">
   <ele>976.023438</ele>
   <time>2024-02-02T05:38:27Z</time>
  </trkpt>
  <trkpt lat="42.855657" lon="-4.456976">
   <ele>975.269531</ele>
   <time>2024-02-02T05:38:53Z</time>
  </trkpt>
  <trkpt lat="42.855657" lon="-4.457020">
   <ele>975.429688</ele>
   <time>2024-02-02T05:38:56Z</time>
  </trkpt>
  <trkpt lat="42.855765" lon="-4.457352">
   <ele>974.281250</ele>
   <time>2024-02-02T05:39:23Z</time>
  </trkpt>
  <trkpt lat="42.855801" lon="-4.457419">
   <ele>973.644531</ele>
   <time>2024-02-02T05:39:28Z</time>
  </trkpt>
  <trkpt lat="42.855603" lon="-4.457662">
   <ele>977.074219</ele>
   <time>2024-02-02T05:39:56Z</time>
  </trkpt>
  <trkpt lat="42.855334" lon="-4.457706">
   <ele>981.031250</ele>
   <time>2024-02-02T05:40:22Z</time>
  </trkpt>
  <trkpt lat="42.855280" lon="-4.457773">
   <ele>981.464844</ele>
   <time>2024-02-02T05:40:31Z</time>
  </trkpt>
  <trkpt lat="42.855064" lon="-4.457861">
   <ele>983.761719</ele>
   <time>2024-02-02T05:40:53Z</time>
  </trkpt>
  <trkpt lat="42.854885" lon="-4.458016">
   <ele>984.085938</ele>
   <time>2024-02-02T05:41:15Z</time>
  </trkpt>
  <trkpt lat="42.854885" lon="-4.458038">
   <ele>983.871094</ele>
   <time>2024-02-02T05:41:16Z</time>
  </trkpt>
  <trkpt lat="42.854759" lon="-4.458193">
   <ele>983.277344</ele>
   <time>2024-02-02T05:41:32Z</time>
  </trkpt>
  <trkpt lat="42.854723" lon="-4.458260">
   <ele>982.921875</ele>
   <time>2024-02-02T05:41:38Z</time>
  </trkpt>
  <trkpt lat="42.854687" lon="-4.458459">
   <ele>981.460938</ele>
   <time>2024-02-02T05:41:54Z</time>
  </trkpt>
  <trkpt lat="42.854687" lon="-4.458503">
   <ele>981.109375</ele>
   <time>2024-02-02T05:41:57Z</time>
  </trkpt>
  <trkpt lat="42.854579" lon="-4.458813">
   <ele>978.921875</ele>
   <time>2024-02-02T05:42:23Z</time>
  </trkpt>
  <trkpt lat="42.854507" lon="-4.459256">
   <ele>977.046875</ele>
   <time>2024-02-02T05:42:56Z</time>
  </trkpt>
  <trkpt lat="42.854472" lon="-4.459300">
   <ele>976.992188</ele>
   <time>2024-02-02T05:43:01Z</time>
  </trkpt>
  <trkpt lat="42.854454" lon="-4.459698">
   <ele>975.941406</ele>
   <time>2024-02-02T05:43:30Z</time>
  </trkpt>
  <trkpt lat="42.854454" lon="-4.460119">
   <ele>976.339844</ele>
   <time>2024-02-02T05:44:01Z</time>
  </trkpt>
  <trkpt lat="42.854436" lon="-4.460251">
   <ele>976.453125</ele>
   <time>2024-02-02T05:44:11Z</time>
  </trkpt>
  <trkpt lat="42.854400" lon="-4.460384">
   <ele>976.613281</ele>
   <time>2024-02-02T05:44:22Z</time>
  </trkpt>
  <trkpt lat="42.854382" lon="-4.460428">
   <ele>976.691406</ele>
   <time>2024-02-02T05:44:24Z</time>
  </trkpt>
  <trkpt lat="42.854543" lon="-4.460805">
   <ele>977.074219</ele>
   <time>2024-02-02T05:44:58Z</time>
  </trkpt>
  <trkpt lat="42.854561" lon="-4.460871">
   <ele>977.019531</ele>
   <time>2024-02-02T05:45:02Z</time>
  </trkpt>
  <trkpt lat="42.854723" lon="-4.461291">
   <ele>976.296875</ele>
   <time>2024-02-02T05:45:37Z</time>
  </trkpt>
  <trkpt lat="42.854741" lon="-4.461358">
   <ele>976.152344</ele>
   <time>2024-02-02T05:45:43Z</time>
  </trkpt>
  <trkpt lat="42.854831" lon="-4.461712">
   <ele>975.777344</ele>
   <time>2024-02-02T05:46:09Z</time>
  </trkpt>
  <trkpt lat="42.854849" lon="-4.461800">
   <ele>975.742188</ele>
   <time>2024-02-02T05:46:17Z</time>
  </trkpt>
  <trkpt lat="42.854885" lon="-4.462066">
   <ele>975.671875</ele>
   <time>2024-02-02T05:46:37Z</time>
  </trkpt>
  <trkpt lat="42.854885" lon="-4.462155">
   <ele>975.628906</ele>
   <time>2024-02-02T05:46:43Z</time>
  </trkpt>
  <trkpt lat="42.854831" lon="-4.462531">
   <ele>975.562500</ele>
   <time>2024-02-02T05:47:12Z</time>
  </trkpt>
  <trkpt lat="42.854723" lon="-4.463062">
   <ele>976.199219</ele>
   <time>2024-02-02T05:47:51Z</time>
  </trkpt>
  <trkpt lat="42.854813" lon="-4.463615">
   <ele>977.984375</ele>
   <time>2024-02-02T05:48:34Z</time>
  </trkpt>
  <trkpt lat="42.854831" lon="-4.463770">
   <ele>978.359375</ele>
   <time>2024-02-02T05:48:45Z</time>
  </trkpt>
  <trkpt lat="42.854831" lon="-4.463792">
   <ele>978.429688</ele>
   <time>2024-02-02T05:48:47Z</time>
  </trkpt>
  <trkpt lat="42.855082" lon="-4.464190">
   <ele>977.132813</ele>
   <time>2024-02-02T05:49:26Z</time>
  </trkpt>
  <trkpt lat="42.855100" lon="-4.464279">
   <ele>977.210938</ele>
   <time>2024-02-02T05:49:32Z</time>
  </trkpt>
  <trkpt lat="42.855406" lon="-4.464567">
   <ele>977.000000</ele>
   <time>2024-02-02T05:50:10Z</time>
  </trkpt>
  <trkpt lat="42.855442" lon="-4.464611">
   <ele>976.921875</ele>
   <time>2024-02-02T05:50:14Z</time>
  </trkpt>
  <trkpt lat="42.855783" lon="-4.464965">
   <ele>976.503906</ele>
   <time>2024-02-02T05:50:57Z</time>
  </trkpt>
  <trkpt lat="42.855837" lon="-4.465009">
   <ele>976.449219</ele>
   <time>2024-02-02T05:51:04Z</time>
  </trkpt>
  <trkpt lat="42.856106" lon="-4.465253">
   <ele>976.179688</ele>
   <time>2024-02-02T05:51:36Z</time>
  </trkpt>
  <trkpt lat="42.856178" lon="-4.465297">
   <ele>976.054688</ele>
   <time>2024-02-02T05:51:43Z</time>
  </trkpt>
  <trkpt lat="42.856502" lon="-4.465607">
   <ele>975.570313</ele>
   <time>2024-02-02T05:52:23Z</time>
  </trkpt>
  <trkpt lat="42.856681" lon="-4.466049">
   <ele>976.074219</ele>
   <time>2024-02-02T05:53:01Z</time>
  </trkpt>
  <trkpt lat="42.856699" lon="-4.466071">
   <ele>976.207031</ele>
   <time>2024-02-02T05:53:03Z</time>
  </trkpt>
  <trkpt lat="42.856843" lon="-4.466580">
   <ele>977.550781</ele>
   <time>2024-02-02T05:53:43Z</time>
  </trkpt>
  <trkpt lat="42.857113" lon="-4.467001">
   <ele>977.847656</ele>
   <time>2024-02-02T05:54:24Z</time>
  </trkpt>
  <trkpt lat="42.857292" lon="-4.467532">
   <ele>977.789063</ele>
   <time>2024-02-02T05:55:07Z</time>
  </trkpt>
  <trkpt lat="42.857436" lon="-4.467952">
   <ele>977.445313</ele>
   <time>2024-02-02T05:55:41Z</time>
  </trkpt>
  <trkpt lat="42.857472" lon="-4.468041">
   <ele>977.300781</ele>
   <time>2024-02-02T05:55:48Z</time>
  </trkpt>
  <trkpt lat="42.857634" lon="-4.468417">
   <ele>978.796875</ele>
   <time>2024-02-02T05:56:20Z</time>
  </trkpt>
  <trkpt lat="42.857670" lon="-4.468528">
   <ele>979.519531</ele>
   <time>2024-02-02T05:56:30Z</time>
  </trkpt>
  <trkpt lat="42.857777" lon="-4.468948">
   <ele>982.058594</ele>
   <time>2024-02-02T05:57:02Z</time>
  </trkpt>
  <trkpt lat="42.857813" lon="-4.469037">
   <ele>982.332031</ele>
   <time>2024-02-02T05:57:09Z</time>
  </trkpt>
  <trkpt lat="42.857885" lon="-4.469502">
   <ele>981.789063</ele>
   <time>2024-02-02T05:57:44Z</time>
  </trkpt>
  <trkpt lat="42.857939" lon="-4.470055">
   <ele>980.523438</ele>
   <time>2024-02-02T05:58:26Z</time>
  </trkpt>
  <trkpt lat="42.857957" lon="-4.470431">
   <ele>979.894531</ele>
   <time>2024-02-02T05:58:53Z</time>
  </trkpt>
  <trkpt lat="42.857939" lon="-4.470697">
   <ele>979.468750</ele>
   <time>2024-02-02T05:59:12Z</time>
  </trkpt>
  <trkpt lat="42.857921" lon="-4.470741">
   <ele>979.457031</ele>
   <time>2024-02-02T05:59:17Z</time>
  </trkpt>
  <trkpt lat="42.857687" lon="-4.470852">
   <ele>979.558594</ele>
   <time>2024-02-02T05:59:41Z</time>
  </trkpt>
  <trkpt lat="42.857418" lon="-4.470962">
   <ele>980.519531</ele>
   <time>2024-02-02T06:00:09Z</time>
  </trkpt>
  <trkpt lat="42.857400" lon="-4.470984">
   <ele>980.718750</ele>
   <time>2024-02-02T06:00:12Z</time>
  </trkpt>
  <trkpt lat="42.857166" lon="-4.471139">
   <ele>982.730469</ele>
   <time>2024-02-02T06:00:38Z</time>
  </trkpt>
  <trkpt lat="42.856879" lon="-4.471161">
   <ele>984.687500</ele>
   <time>2024-02-02T06:01:07Z</time>
  </trkpt>
  <trkpt lat="42.856538" lon="-4.471206">
   <ele>987.421875</ele>
   <time>2024-02-02T06:01:42Z</time>
  </trkpt>
  <trkpt lat="42.856250" lon="-4.471206">
   <ele>990.757813</ele>
   <time>2024-02-02T06:02:10Z</time>
  </trkpt>
  <trkpt lat="42.855981" lon="-4.471228">
   <ele>993.753906</ele>
   <time>2024-02-02T06:02:37Z</time>
  </trkpt>
  <trkpt lat="42.855801" lon="-4.471626">
   <ele>992.753906</ele>
   <time>2024-02-02T06:03:11Z</time>
  </trkpt>
  <trkpt lat="42.855729" lon="-4.472069">
   <ele>988.859375</ele>
   <time>2024-02-02T06:03:45Z</time>
  </trkpt>
  <trkpt lat="42.855621" lon="-4.472511">
   <ele>986.324219</ele>
   <time>2024-02-02T06:04:20Z</time>
  </trkpt>
  <trkpt lat="42.855621" lon="-4.472644">
   <ele>985.558594</ele>
   <time>2024-02-02T06:04:30Z</time>
  </trkpt>
  <trkpt lat="42.855514" lon="-4.473131">
   <ele>983.425781</ele>
   <time>2024-02-02T06:05:07Z</time>
  </trkpt>
  <trkpt lat="42.855585" lon="-4.473485">
   <ele>983.734375</ele>
   <time>2024-02-02T06:05:34Z</time>
  </trkpt>
  <trkpt lat="42.855585" lon="-4.473551">
   <ele>983.886719</ele>
   <time>2024-02-02T06:05:39Z</time>
  </trkpt>
  <trkpt lat="42.855657" lon="-4.474016">
   <ele>985.089844</ele>
   <time>2024-02-02T06:06:14Z</time>
  </trkpt>
  <trkpt lat="42.855657" lon="-4.474060">
   <ele>985.265625</ele>
   <time>2024-02-02T06:06:17Z</time>
  </trkpt>
  <trkpt lat="42.855801" lon="-4.474525">
   <ele>986.449219</ele>
   <time>2024-02-02T06:06:54Z</time>
  </trkpt>
  <trkpt lat="42.855819" lon="-4.474636">
   <ele>986.660156</ele>
   <time>2024-02-02T06:07:03Z</time>
  </trkpt>
  <trkpt lat="42.855909" lon="-4.475034">
   <ele>986.433594</ele>
   <time>2024-02-02T06:07:32Z</time>
  </trkpt>
  <trkpt lat="42.855909" lon="-4.475078">
   <ele>986.328125</ele>
   <time>2024-02-02T06:07:35Z</time>
  </trkpt>
  <trkpt lat="42.855999" lon="-4.475543">
   <ele>985.234375</ele>
   <time>2024-02-02T06:08:12Z</time>
  </trkpt>
  <trkpt lat="42.855999" lon="-4.475565">
   <ele>985.183594</ele>
   <time>2024-02-02T06:08:13Z</time>
  </trkpt>
  <trkpt lat="42.856071" lon="-4.476052">
   <ele>986.371094</ele>
   <time>2024-02-02T06:08:50Z</time>
  </trkpt>
  <trkpt lat="42.856071" lon="-4.476118">
   <ele>986.601563</ele>
   <time>2024-02-02T06:08:55Z</time>
  </trkpt>
  <trkpt lat="42.856124" lon="-4.476605">
   <ele>988.183594</ele>
   <time>2024-02-02T06:09:30Z</time>
  </trkpt>
  <trkpt lat="42.856178" lon="-4.477203">
   <ele>989.875000</ele>
   <time>2024-02-02T06:10:14Z</time>
  </trkpt>
  <trkpt lat="42.856088" lon="-4.477756">
   <ele>991.980469</ele>
   <time>2024-02-02T06:10:56Z</time>
  </trkpt>
  <trkpt lat="42.856088" lon="-4.477778">
   <ele>992.007813</ele>
   <time>2024-02-02T06:10:59Z</time>
  </trkpt>
  <trkpt lat="42.856071" lon="-4.478331">
   <ele>992.402344</ele>
   <time>2024-02-02T06:11:39Z</time>
  </trkpt>
  <trkpt lat="42.856071" lon="-4.478730">
   <ele>991.453125</ele>
   <time>2024-02-02T06:12:09Z</time>
  </trkpt>
  <trkpt lat="42.855873" lon="-4.478929">
   <ele>992.703125</ele>
   <time>2024-02-02T06:12:33Z</time>
  </trkpt>
  <trkpt lat="42.855567" lon="-4.479106">
   <ele>995.148438</ele>
   <time>2024-02-02T06:13:06Z</time>
  </trkpt>
  <trkpt lat="42.855442" lon="-4.479261">
   <ele>994.984375</ele>
   <time>2024-02-02T06:13:24Z</time>
  </trkpt>
  <trkpt lat="42.855262" lon="-4.479504">
   <ele>993.234375</ele>
   <time>2024-02-02T06:13:48Z</time>
  </trkpt>
  <trkpt lat="42.855262" lon="-4.479526">
   <ele>992.960938</ele>
   <time>2024-02-02T06:13:51Z</time>
  </trkpt>
  <trkpt lat="42.855082" lon="-4.479748">
   <ele>989.910156</ele>
   <time>2024-02-02T06:14:15Z</time>
  </trkpt>
  <trkpt lat="42.854813" lon="-4.479969">
   <ele>989.710938</ele>
   <time>2024-02-02T06:14:45Z</time>
  </trkpt>
  <trkpt lat="42.854705" lon="-4.480257">
   <ele>989.187500</ele>
   <time>2024-02-02T06:15:10Z</time>
  </trkpt>
  <trkpt lat="42.854597" lon="-4.480633">
   <ele>988.464844</ele>
   <time>2024-02-02T06:15:39Z</time>
  </trkpt>
  <trkpt lat="42.854364" lon="-4.480854">
   <ele>990.105469</ele>
   <time>2024-02-02T06:16:08Z</time>
  </trkpt>
  <trkpt lat="42.854202" lon="-4.481075">
   <ele>991.308594</ele>
   <time>2024-02-02T06:16:30Z</time>
  </trkpt>
  <trkpt lat="42.854130" lon="-4.481363">
   <ele>991.550781</ele>
   <time>2024-02-02T06:16:54Z</time>
  </trkpt>
  <trkpt lat="42.854130" lon="-4.481385">
   <ele>991.507813</ele>
   <time>2024-02-02T06:16:55Z</time>
  </trkpt>
  <trkpt lat="42.853933" lon="-4.481341">
   <ele>994.265625</ele>
   <time>2024-02-02T06:17:16Z</time>
  </trkpt>
  <trkpt lat="42.853834" lon="-4.481450">
   <ele>995.656250</ele>
   <time>2024-02-02T06:17:27Z</time>
  </trkpt>
  <trkpt lat="42.853762" lon="-4.481760">
   <ele>996.996094</ele>
   <time>2024-02-02T06:17:52Z</time>
  </trkpt>
  <trkpt lat="42.853762" lon="-4.481805">
   <ele>997.019531</ele>
   <time>2024-02-02T06:17:56Z</time>
  </trkpt>
  <trkpt lat="42.853834" lon="-4.482225">
   <ele>996.058594</ele>
   <time>2024-02-02T06:18:27Z</time>
  </trkpt>
  <trkpt lat="42.853942" lon="-4.482579">
   <ele>994.414063</ele>
   <time>2024-02-02T06:18:56Z</time>
  </trkpt>
  <trkpt lat="42.853942" lon="-4.482623">
   <ele>994.425781</ele>
   <time>2024-02-02T06:18:59Z</time>
  </trkpt>
  <trkpt lat="42.854014" lon="-4.482845">
   <ele>993.515625</ele>
   <time>2024-02-02T06:19:17Z</time>
  </trkpt>
  <trkpt lat="42.854121" lon="-4.483221">
   <ele>992.914063</ele>
   <time>2024-02-02T06:19:46Z</time>
  </trkpt>
  <trkpt lat="42.854121" lon="-4.483243">
   <ele>993.027344</ele>
   <time>2024-02-02T06:19:47Z</time>
  </trkpt>
  <trkpt lat="42.854157" lon="-4.483509">
   <ele>994.250000</ele>
   <time>2024-02-02T06:20:08Z</time>
  </trkpt>
  <trkpt lat="42.854355" lon="-4.483486">
   <ele>993.664063</ele>
   <time>2024-02-02T06:20:28Z</time>
  </trkpt>
  <trkpt lat="42.854535" lon="-4.483641">
   <ele>993.972656</ele>
   <time>2024-02-02T06:20:48Z</time>
  </trkpt>
  <trkpt lat="42.854696" lon="-4.483907">
   <ele>994.808594</ele>
   <time>2024-02-02T06:21:13Z</time>
  </trkpt>
  <trkpt lat="42.854804" lon="-4.484194">
   <ele>995.753906</ele>
   <time>2024-02-02T06:21:38Z</time>
  </trkpt>
  <trkpt lat="42.855002" lon="-4.484637">
   <ele>995.472656</ele>
   <time>2024-02-02T06:22:15Z</time>
  </trkpt>
  <trkpt lat="42.855145" lon="-4.484903">
   <ele>996.457031</ele>
   <time>2024-02-02T06:22:39Z</time>
  </trkpt>
  <trkpt lat="42.855235" lon="-4.485279">
   <ele>998.660156</ele>
   <time>2024-02-02T06:23:08Z</time>
  </trkpt>
  <trkpt lat="42.855253" lon="-4.485279">
   <ele>998.472656</ele>
   <time>2024-02-02T06:23:11Z</time>
  </trkpt>
  <trkpt lat="42.855325" lon="-4.485522">
   <ele>999.187500</ele>
   <time>2024-02-02T06:23:30Z</time>
  </trkpt>
  <trkpt lat="42.855325" lon="-4.485589">
   <ele>999.585938</ele>
   <time>2024-02-02T06:23:35Z</time>
  </trkpt>
  <trkpt lat="42.855397" lon="-4.485854">
   <ele>999.546875</ele>
   <time>2024-02-02T06:23:56Z</time>
  </trkpt>
  <trkpt lat="42.855433" lon="-4.486076">
   <ele>999.460938</ele>
   <time>2024-02-02T06:24:12Z</time>
  </trkpt>
  <trkpt lat="42.855433" lon="-4.486098">
   <ele>999.519531</ele>
   <time>2024-02-02T06:24:15Z</time>
  </trkpt>
  <trkpt lat="42.855738" lon="-4.486341">
   <ele>992.625000</ele>
   <time>2024-02-02T06:24:50Z</time>
  </trkpt>
  <trkpt lat="42.855972" lon="-4.486474">
   <ele>989.187500</ele>
   <time>2024-02-02T06:25:15Z</time>
  </trkpt>
  <trkpt lat="42.856277" lon="-4.486607">
   <ele>987.648438</ele>
   <time>2024-02-02T06:25:47Z</time>
  </trkpt>
  <trkpt lat="42.856295" lon="-4.486607">
   <ele>987.562500</ele>
   <time>2024-02-02T06:25:50Z</time>
  </trkpt>
  <trkpt lat="42.856475" lon="-4.486607">
   <ele>986.722656</ele>
   <time>2024-02-02T06:26:08Z</time>
  </trkpt>
  <trkpt lat="42.856673" lon="-4.486872">
   <ele>987.023438</ele>
   <time>2024-02-02T06:26:35Z</time>
  </trkpt>
  <trkpt lat="42.856834" lon="-4.487116">
   <ele>988.007813</ele>
   <time>2024-02-02T06:27:00Z</time>
  </trkpt>
  <trkpt lat="42.856996" lon="-4.487470">
   <ele>988.796875</ele>
   <time>2024-02-02T06:27:29Z</time>
  </trkpt>
  <trkpt lat="42.857194" lon="-4.487934">
   <ele>988.550781</ele>
   <time>2024-02-02T06:28:10Z</time>
  </trkpt>
  <trkpt lat="42.857373" lon="-4.488333">
   <ele>987.753906</ele>
   <time>2024-02-02T06:28:44Z</time>
  </trkpt>
  <trkpt lat="42.857535" lon="-4.488731">
   <ele>987.648438</ele>
   <time>2024-02-02T06:29:17Z</time>
  </trkpt>
  <trkpt lat="42.857751" lon="-4.489196">
   <ele>987.839844</ele>
   <time>2024-02-02T06:29:58Z</time>
  </trkpt>
  <trkpt lat="42.857930" lon="-4.489616">
   <ele>987.527344</ele>
   <time>2024-02-02T06:30:34Z</time>
  </trkpt>
  <trkpt lat="42.858092" lon="-4.489926">
   <ele>987.542969</ele>
   <time>2024-02-02T06:31:02Z</time>
  </trkpt>
  <trkpt lat="42.858110" lon="-4.490324">
   <ele>988.402344</ele>
   <time>2024-02-02T06:31:31Z</time>
  </trkpt>
  <trkpt lat="42.858236" lon="-4.490900">
   <ele>990.710938</ele>
   <time>2024-02-02T06:32:15Z</time>
  </trkpt>
  <trkpt lat="42.858307" lon="-4.491364">
   <ele>993.433594</ele>
   <time>2024-02-02T06:32:50Z</time>
  </trkpt>
  <trkpt lat="42.858307" lon="-4.491387">
   <ele>993.578125</ele>
   <time>2024-02-02T06:32:51Z</time>
  </trkpt>
  <trkpt lat="42.858397" lon="-4.491807">
   <ele>994.203125</ele>
   <time>2024-02-02T06:33:24Z</time>
  </trkpt>
  <trkpt lat="42.858397" lon="-4.491829">
   <ele>994.226563</ele>
   <time>2024-02-02T06:33:26Z</time>
  </trkpt>
  <trkpt lat="42.858451" lon="-4.492183">
   <ele>994.402344</ele>
   <time>2024-02-02T06:33:51Z</time>
  </trkpt>
  <trkpt lat="42.858559" lon="-4.492427">
   <ele>993.558594</ele>
   <time>2024-02-02T06:34:13Z</time>
  </trkpt>
  <trkpt lat="42.858595" lon="-4.492493">
   <ele>993.222656</ele>
   <time>2024-02-02T06:34:19Z</time>
  </trkpt>
  <trkpt lat="42.858685" lon="-4.492936">
   <ele>991.035156</ele>
   <time>2024-02-02T06:34:52Z</time>
  </trkpt>
  <trkpt lat="42.858810" lon="-4.493423">
   <ele>990.070313</ele>
   <time>2024-02-02T06:35:30Z</time>
  </trkpt>
  <trkpt lat="42.858918" lon="-4.493887">
   <ele>990.195313</ele>
   <time>2024-02-02T06:36:06Z</time>
  </trkpt>
  <trkpt lat="42.859044" lon="-4.494374">
   <ele>990.593750</ele>
   <time>2024-02-02T06:36:45Z</time>
  </trkpt>
  <trkpt lat="42.859224" lon="-4.494596">
   <ele>990.730469</ele>
   <time>2024-02-02T06:37:09Z</time>
  </trkpt>
  <trkpt lat="42.859404" lon="-4.494795">
   <ele>991.140625</ele>
   <time>2024-02-02T06:37:31Z</time>
  </trkpt>
  <trkpt lat="42.859637" lon="-4.495016">
   <ele>991.800781</ele>
   <time>2024-02-02T06:38:01Z</time>
  </trkpt>
  <trkpt lat="42.859925" lon="-4.495259">
   <ele>993.335938</ele>
   <time>2024-02-02T06:38:35Z</time>
  </trkpt>
  <trkpt lat="42.860104" lon="-4.495459">
   <ele>994.519531</ele>
   <time>2024-02-02T06:38:57Z</time>
  </trkpt>
  <trkpt lat="42.860284" lon="-4.495658">
   <ele>995.093750</ele>
   <time>2024-02-02T06:39:21Z</time>
  </trkpt>
  <trkpt lat="42.860518" lon="-4.495901">
   <ele>995.054688</ele>
   <time>2024-02-02T06:39:51Z</time>
  </trkpt>
  <trkpt lat="42.860805" lon="-4.496123">
   <ele>994.878906</ele>
   <time>2024-02-02T06:40:23Z</time>
  </trkpt>
  <trkpt lat="42.860985" lon="-4.496366">
   <ele>994.570313</ele>
   <time>2024-02-02T06:40:48Z</time>
  </trkpt>
  <trkpt lat="42.861128" lon="-4.496631">
   <ele>994.714844</ele>
   <time>2024-02-02T06:41:13Z</time>
  </trkpt>
  <trkpt lat="42.861380" lon="-4.496919">
   <ele>995.503906</ele>
   <time>2024-02-02T06:41:46Z</time>
  </trkpt>
  <trkpt lat="42.861560" lon="-4.497207">
   <ele>995.785156</ele>
   <time>2024-02-02T06:42:14Z</time>
  </trkpt>
  <trkpt lat="42.861685" lon="-4.497436">
   <ele>996.105469</ele>
   <time>2024-02-02T06:42:35Z</time>
  </trkpt>
  <trkpt lat="42.861757" lon="-4.497702">
   <ele>996.335938</ele>
   <time>2024-02-02T06:42:56Z</time>
  </trkpt>
  <trkpt lat="42.861811" lon="-4.497890">
   <ele>996.597656</ele>
   <time>2024-02-02T06:43:10Z</time>
  </trkpt>
  <trkpt lat="42.861883" lon="-4.498100">
   <ele>997.046875</ele>
   <time>2024-02-02T06:43:27Z</time>
  </trkpt>
  <trkpt lat="42.861955" lon="-4.498277">
   <ele>997.765625</ele>
   <time>2024-02-02T06:43:42Z</time>
  </trkpt>
  <trkpt lat="42.861964" lon="-4.498277">
   <ele>997.812500</ele>
   <time>2024-02-02T06:43:43Z</time>
  </trkpt>
  <trkpt lat="42.862017" lon="-4.498399">
   <ele>998.363281</ele>
   <time>2024-02-02T06:43:53Z</time>
  </trkpt>
  <trkpt lat="42.862098" lon="-4.498554">
   <ele>999.082031</ele>
   <time>2024-02-02T06:44:08Z</time>
  </trkpt>
 </trkseg>
</trk>
</gpx>
